Observation data for Sierra Blanca on 07/20/2019      Previous  Date       Current Mesonet Observations  Soil Data  Daily Summary Page  Observations in Plain Language
KSB1 200500Z 25007KT 27/11 A3004 RMK A01 T02730111  RH  036%=      5-min Rain = 0
KSB1 200501Z 25007KT 27/11 A3004 RMK A01 T02730111  RH  036%=      5-min Rain = 0
KSB1 200502Z 25006KT 27/11 A3004 RMK A01 T02740111  RH  036%=      5-min Rain = 0
KSB1 200503Z 25007KT 27/11 A3004 RMK A01 T02740111  RH  036%=      5-min Rain = 0
KSB1 200504Z 25007KT 27/11 A3004 RMK A01 T02740112  RH  036%=      5-min Rain = 0
KSB1 200505Z 25008KT 27/11 A3004 RMK A01 T02740112  RH  036%=      5-min Rain = 0
KSB1 200506Z 25008KT 27/11 A3004 RMK A01 T02740112  RH  036%=      5-min Rain = 0
KSB1 200507Z 25007KT 27/11 A3004 RMK A01 T02740112  RH  036%=      5-min Rain = 0
KSB1 200508Z 25008KT 27/11 A3004 RMK A01 T02740112  RH  036%=      5-min Rain = 0
KSB1 200509Z 25008KT 27/11 A3004 RMK A01 T02740112  RH  036%=      5-min Rain = 0
KSB1 200510Z 25008KT 27/11 A3004 RMK A01 T02740112  RH  037%=      5-min Rain = 0
KSB1 200511Z 25008KT 27/11 A3004 RMK A01 T02740112  RH  036%=      5-min Rain = 0
KSB1 200512Z 25008KT 27/11 A3004 RMK A01 T02740113  RH  036%=      5-min Rain = 0
KSB1 200513Z 25007KT 28/11 A3004 RMK A01 T02750113  RH  036%=      5-min Rain = 0
KSB1 200514Z 25008KT 27/11 A3004 RMK A01 T02740113  RH  036%=      5-min Rain = 0
KSB1 200515Z 25008KT 27/11 A3004 RMK A01 T02740113  RH  037%=      5-min Rain = 0
KSB1 200516Z 25007KT 27/11 A3004 RMK A01 T02740113  RH  037%=      5-min Rain = 0
KSB1 200517Z 25007KT 27/11 A3004 RMK A01 T02740113  RH  037%=      5-min Rain = 0
KSB1 200518Z 25007KT 27/11 A3004 RMK A01 T02740113  RH  037%=      5-min Rain = 0
KSB1 200519Z 25007KT 27/11 A3004 RMK A01 T02730113  RH  037%=      5-min Rain = 0
KSB1 200520Z 24007KT 27/11 A3004 RMK A01 T02730113  RH  037%=      5-min Rain = 0
KSB1 200521Z 24007KT 27/11 A3004 RMK A01 T02720113  RH  037%=      5-min Rain = 0
KSB1 200522Z 24007KT 27/11 A3004 RMK A01 T02710113  RH  037%=      5-min Rain = 0
KSB1 200523Z 24007KT 27/11 A3004 RMK A01 T02710113  RH  037%=      5-min Rain = 0
KSB1 200524Z 25006KT 27/11 A3004 RMK A01 T02710113  RH  037%=      5-min Rain = 0
KSB1 200525Z 24006KT 27/11 A3004 RMK A01 T02700113  RH  038%=      5-min Rain = 0
KSB1 200526Z 24006KT 27/11 A3004 RMK A01 T02670112  RH  038%=      5-min Rain = 0
KSB1 200527Z 24006KT 27/11 A3004 RMK A01 T02660112  RH  038%=      5-min Rain = 0
KSB1 200528Z 24007KT 27/11 A3004 RMK A01 T02650112  RH  038%=      5-min Rain = 0
KSB1 200529Z 24006KT 27/11 A3004 RMK A01 T02650113  RH  039%=      5-min Rain = 0
KSB1 200530Z 24006KT 27/11 A3004 RMK A01 T02650113  RH  039%=      5-min Rain = 0
KSB1 200531Z 24006KT 27/11 A3004 RMK A01 T02650113  RH  039%=      5-min Rain = 0
KSB1 200532Z 24007KT 26/11 A3004 RMK A01 T02640112  RH  039%=      5-min Rain = 0
KSB1 200533Z 23007KT 27/11 A3004 RMK A01 T02650113  RH  039%=      5-min Rain = 0
KSB1 200534Z 23007KT 26/11 A3004 RMK A01 T02640113  RH  039%=      5-min Rain = 0
KSB1 200535Z 23007KT 26/11 A3004 RMK A01 T02640113  RH  039%=      5-min Rain = 0
KSB1 200536Z 23007KT 27/11 A3004 RMK A01 T02650113  RH  039%=      5-min Rain = 0
KSB1 200537Z 23007KT 27/11 A3004 RMK A01 T02650113  RH  039%=      5-min Rain = 0
KSB1 200538Z 23005KT 26/11 A3004 RMK A01 T02640112  RH  039%=      5-min Rain = 0
KSB1 200539Z 22005KT 26/11 A3004 RMK A01 T02600110  RH  039%=      5-min Rain = 0
KSB1 200540Z 22005KT 26/11 A3004 RMK A01 T02590111  RH  040%=      5-min Rain = 0
KSB1 200541Z 22005KT 26/11 A3004 RMK A01 T02590112  RH  040%=      5-min Rain = 0
KSB1 200542Z 22005KT 26/11 A3004 RMK A01 T02590112  RH  040%=      5-min Rain = 0
KSB1 200543Z 22006KT 26/11 A3005 RMK A01 T02590113  RH  040%=      5-min Rain = 0
KSB1 200544Z 22005KT 26/11 A3005 RMK A01 T02600113  RH  040%=      5-min Rain = 0
KSB1 200545Z 22005KT 26/11 A3005 RMK A01 T02600113  RH  040%=      5-min Rain = 0
KSB1 200546Z 22005KT 26/11 A3005 RMK A01 T02600113  RH  040%=      5-min Rain = 0
KSB1 200547Z 23005KT 26/11 A3005 RMK A01 T02600114  RH  040%=      5-min Rain = 0
KSB1 200548Z 23006KT 26/11 A3005 RMK A01 T02610114  RH  040%=      5-min Rain = 0
KSB1 200549Z 22006KT 26/11 A3005 RMK A01 T02620114  RH  040%=      5-min Rain = 0
KSB1 200550Z 22007KT 26/11 A3005 RMK A01 T02620114  RH  040%=      5-min Rain = 0
KSB1 200551Z 22007KT 26/11 A3005 RMK A01 T02630114  RH  039%=      5-min Rain = 0
KSB1 200552Z 22006KT 26/11 A3005 RMK A01 T02630114  RH  039%=      5-min Rain = 0
KSB1 200553Z 22006KT 26/11 A3005 RMK A01 T02630114  RH  039%=      5-min Rain = 0
KSB1 200554Z 22006KT 26/11 A3005 RMK A01 T02630114  RH  039%=      5-min Rain = 0
KSB1 200555Z 22006KT 26/12 A3005 RMK A01 T02640115  RH  039%=      5-min Rain = 0
KSB1 200556Z 22006KT 27/12 A3005 RMK A01 T02650115  RH  039%=      5-min Rain = 0
KSB1 200557Z 22007KT 27/12 A3005 RMK A01 T02650115  RH  039%=      5-min Rain = 0
KSB1 200558Z 22006KT 27/12 A3005 RMK A01 T02650115  RH  039%=      5-min Rain = 0
KSB1 200559Z 22006KT 27/12 A3005 RMK A01 T02660115  RH  039%=      5-min Rain = 0
KSB1 200600Z 22006KT 27/12 A3005 RMK A01 T02650115  RH  039%=      5-min Rain = 0
KSB1 200601Z 21006KT 26/11 A3005 RMK A01 T02640114  RH  039%=      5-min Rain = 0
KSB1 200602Z 21007KT 26/11 A3005 RMK A01 T02640114  RH  039%=      5-min Rain = 0
KSB1 200603Z 20008KT 27/12 A3005 RMK A01 T02650115  RH  039%=      5-min Rain = 0
KSB1 200604Z 19008KT 27/12 A3005 RMK A01 T02660115  RH  039%=      5-min Rain = 0
KSB1 200605Z 19008KT 27/11 A3005 RMK A01 T02660113  RH  039%=      5-min Rain = 0
KSB1 200606Z 19008KT 27/11 A3005 RMK A01 T02650113  RH  038%=      5-min Rain = 0
KSB1 200607Z 18008KT 27/11 A3005 RMK A01 T02650113  RH  039%=      5-min Rain = 0
KSB1 200608Z 19008KT 26/11 A3005 RMK A01 T02640113  RH  039%=      5-min Rain = 0
KSB1 200609Z 20007KT 26/11 A3005 RMK A01 T02640113  RH  039%=      5-min Rain = 0
KSB1 200610Z 21007KT 27/11 A3005 RMK A01 T02650113  RH  039%=      5-min Rain = 0
KSB1 200611Z 22007KT 27/11 A3005 RMK A01 T02650113  RH  039%=      5-min Rain = 0
KSB1 200612Z 22007KT 27/11 A3005 RMK A01 T02650113  RH  039%=      5-min Rain = 0
KSB1 200613Z 22007KT 27/11 A3005 RMK A01 T02660113  RH  038%=      5-min Rain = 0
KSB1 200614Z 22007KT 27/11 A3005 RMK A01 T02660113  RH  038%=      5-min Rain = 0
KSB1 200615Z 22007KT 27/11 A3005 RMK A01 T02670113  RH  038%=      5-min Rain = 0
KSB1 200616Z 21007KT 27/11 A3005 RMK A01 T02670113  RH  038%=      5-min Rain = 0
KSB1 200617Z 21007KT 27/11 A3005 RMK A01 T02670113  RH  038%=      5-min Rain = 0
KSB1 200618Z 21008KT 27/11 A3005 RMK A01 T02670113  RH  038%=      5-min Rain = 0
KSB1 200619Z 21008KT 27/11 A3005 RMK A01 T02670113  RH  038%=      5-min Rain = 0
KSB1 200620Z 21008KT 27/11 A3005 RMK A01 T02680113  RH  038%=      5-min Rain = 0
KSB1 200621Z 21007KT 27/11 A3005 RMK A01 T02690113  RH  038%=      5-min Rain = 0
KSB1 200622Z 20006KT 27/11 A3005 RMK A01 T02720113  RH  037%=      5-min Rain = 0
KSB1 200623Z 20006KT 27/11 A3005 RMK A01 T02720113  RH  037%=      5-min Rain = 0
KSB1 200624Z 21006KT 27/11 A3005 RMK A01 T02720112  RH  037%=      5-min Rain = 0
KSB1 200625Z 20006KT 27/11 A3005 RMK A01 T02720112  RH  037%=      5-min Rain = 0
KSB1 200626Z 21006KT 27/11 A3005 RMK A01 T02710112  RH  037%=      5-min Rain = 0
KSB1 200627Z 21005KT 27/11 A3005 RMK A01 T02710111  RH  037%=      5-min Rain = 0
KSB1 200628Z 21005KT 27/11 A3005 RMK A01 T02710112  RH  037%=      5-min Rain = 0
KSB1 200629Z 21005KT 27/11 A3005 RMK A01 T02710112  RH  037%=      5-min Rain = 0
KSB1 200630Z 21005KT 27/11 A3005 RMK A01 T02710112  RH  037%=      5-min Rain = 0
KSB1 200631Z 21004KT 27/11 A3005 RMK A01 T02710111  RH  037%=      5-min Rain = 0
KSB1 200632Z 21004KT 27/11 A3005 RMK A01 T02710111  RH  037%=      5-min Rain = 0
KSB1 200633Z 21004KT 27/11 A3005 RMK A01 T02710112  RH  037%=      5-min Rain = 0
KSB1 200634Z 21004KT 27/11 A3004 RMK A01 T02710112  RH  037%=      5-min Rain = 0
KSB1 200635Z 22003KT 27/11 A3004 RMK A01 T02720112  RH  037%=      5-min Rain = 0
KSB1 200636Z 22003KT 27/11 A3004 RMK A01 T02730112  RH  037%=      5-min Rain = 0
KSB1 200637Z 22003KT 27/11 A3004 RMK A01 T02740112  RH  036%=      5-min Rain = 0
KSB1 200638Z 23003KT 27/11 A3004 RMK A01 T02740111  RH  036%=      5-min Rain = 0
KSB1 200639Z 23004KT 28/11 A3004 RMK A01 T02750112  RH  036%=      5-min Rain = 0
KSB1 200640Z 23003KT 28/11 A3004 RMK A01 T02750111  RH  036%=      5-min Rain = 0
KSB1 200641Z 23004KT 28/11 A3004 RMK A01 T02750111  RH  036%=      5-min Rain = 0
KSB1 200642Z 22003KT 28/11 A3004 RMK A01 T02750111  RH  036%=      5-min Rain = 0
KSB1 200643Z 11003KT 27/11 A3004 RMK A01 T02740111  RH  036%=      5-min Rain = 0
KSB1 200644Z 09004KT 27/11 A3004 RMK A01 T02700108  RH  036%=      5-min Rain = 0
KSB1 200645Z 10003KT 27/11 A3004 RMK A01 T02660108  RH  037%=      5-min Rain = 0
KSB1 200646Z 15001KT 27/11 A3004 RMK A01 T02650109  RH  038%=      5-min Rain = 0
KSB1 200647Z 12002KT 27/11 A3005 RMK A01 T02670110  RH  037%=      5-min Rain = 0
KSB1 200648Z 10003KT 27/11 A3005 RMK A01 T02690110  RH  037%=      5-min Rain = 0
KSB1 200649Z 13002KT 27/11 A3005 RMK A01 T02690110  RH  037%=      5-min Rain = 0
KSB1 200650Z 13001KT 27/11 A3005 RMK A01 T02680110  RH  037%=      5-min Rain = 0
KSB1 200651Z 13001KT 27/11 A3005 RMK A01 T02680110  RH  037%=      5-min Rain = 0
KSB1 200652Z 13001KT 27/11 A3005 RMK A01 T02680110  RH  037%=      5-min Rain = 0
KSB1 200653Z 12001KT 27/11 A3005 RMK A01 T02680110  RH  037%=      5-min Rain = 0
KSB1 200654Z 12001KT 27/11 A3005 RMK A01 T02690110  RH  037%=      5-min Rain = 0
KSB1 200655Z 12001KT 27/11 A3005 RMK A01 T02690110  RH  037%=      5-min Rain = 0
KSB1 200656Z 09002KT 27/11 A3005 RMK A01 T02700110  RH  037%=      5-min Rain = 0
KSB1 200657Z 08003KT 27/11 A3005 RMK A01 T02700110  RH  037%=      5-min Rain = 0
KSB1 200658Z 09002KT 27/11 A3005 RMK A01 T02710110  RH  037%=      5-min Rain = 0
KSB1 200659Z 10003KT 27/11 A3005 RMK A01 T02710110  RH  037%=      5-min Rain = 0
KSB1 200700Z 09003KT 27/11 A3005 RMK A01 T02710110  RH  037%=      5-min Rain = 0
KSB1 200701Z 09003KT 27/11 A3005 RMK A01 T02700110  RH  037%=      5-min Rain = 0
KSB1 200702Z 09002KT 27/11 A3005 RMK A01 T02680110  RH  037%=      5-min Rain = 0
KSB1 200703Z 09002KT 27/11 A3005 RMK A01 T02670109  RH  037%=      5-min Rain = 0
KSB1 200704Z 07003KT 27/11 A3005 RMK A01 T02650109  RH  038%=      5-min Rain = 0
KSB1 200705Z 09003KT 26/11 A3005 RMK A01 T02640109  RH  038%=      5-min Rain = 0
KSB1 200706Z 10003KT 26/11 A3005 RMK A01 T02620113  RH  039%=      5-min Rain = 0
KSB1 200707Z 10002KT 26/11 A3005 RMK A01 T02610113  RH  040%=      5-min Rain = 0
KSB1 200708Z 11002KT 26/12 A3005 RMK A01 T02610115  RH  040%=      5-min Rain = 0
KSB1 200709Z 12003KT 26/12 A3005 RMK A01 T02600115  RH  040%=      5-min Rain = 0
KSB1 200710Z 10002KT 26/12 A3004 RMK A01 T02600115  RH  040%=      5-min Rain = 0
KSB1 200711Z 10003KT 26/11 A3004 RMK A01 T02600114  RH  040%=      5-min Rain = 0
KSB1 200712Z 10003KT 26/11 A3004 RMK A01 T02600114  RH  040%=      5-min Rain = 0
KSB1 200713Z 10004KT 26/12 A3004 RMK A01 T02590115  RH  041%=      5-min Rain = 0
KSB1 200714Z 11003KT 26/12 A3005 RMK A01 T02580116  RH  041%=      5-min Rain = 0
KSB1 200715Z 09004KT 26/12 A3004 RMK A01 T02580117  RH  041%=      5-min Rain = 0
KSB1 200716Z 10003KT 26/12 A3004 RMK A01 T02580117  RH  041%=      5-min Rain = 0
KSB1 200717Z 10003KT 26/12 A3005 RMK A01 T02580117  RH  041%=      5-min Rain = 0
KSB1 200718Z 09003KT 26/12 A3005 RMK A01 T02570117  RH  042%=      5-min Rain = 0
KSB1 200719Z 08002KT 26/12 A3005 RMK A01 T02560117  RH  042%=      5-min Rain = 0
KSB1 200720Z 06002KT 26/12 A3005 RMK A01 T02560117  RH  042%=      5-min Rain = 0
KSB1 200721Z 09001KT 26/12 A3005 RMK A01 T02550117  RH  042%=      5-min Rain = 0
KSB1 200722Z 09002KT 25/12 A3005 RMK A01 T02540116  RH  042%=      5-min Rain = 0
KSB1 200723Z 09003KT 25/12 A3005 RMK A01 T02540117  RH  042%=      5-min Rain = 0
KSB1 200724Z 09003KT 25/12 A3005 RMK A01 T02530117  RH  042%=      5-min Rain = 0
KSB1 200725Z 09003KT 25/12 A3005 RMK A01 T02530117  RH  042%=      5-min Rain = 0
KSB1 200726Z 10002KT 25/12 A3005 RMK A01 T02520116  RH  042%=      5-min Rain = 0
KSB1 200727Z 11003KT 25/12 A3005 RMK A01 T02520115  RH  043%=      5-min Rain = 0
KSB1 200728Z 10003KT 25/12 A3005 RMK A01 T02510115  RH  043%=      5-min Rain = 0
KSB1 200729Z 11003KT 25/12 A3005 RMK A01 T02510115  RH  042%=      5-min Rain = 0
KSB1 200730Z 11002KT 25/11 A3005 RMK A01 T02510114  RH  042%=      5-min Rain = 0
KSB1 200731Z 11001KT 25/11 A3005 RMK A01 T02510114  RH  042%=      5-min Rain = 0
KSB1 200732Z 09001KT 25/11 A3005 RMK A01 T02510113  RH  042%=      5-min Rain = 0
KSB1 200733Z 10002KT 25/11 A3005 RMK A01 T02510114  RH  042%=      5-min Rain = 0
KSB1 200734Z 11001KT 25/11 A3005 RMK A01 T02510113  RH  042%=      5-min Rain = 0
KSB1 200735Z 12001KT 25/11 A3005 RMK A01 T02510113  RH  042%=      5-min Rain = 0
KSB1 200736Z 13002KT 25/11 A3005 RMK A01 T02510114  RH  042%=      5-min Rain = 0
KSB1 200737Z 13002KT 25/11 A3005 RMK A01 T02510113  RH  042%=      5-min Rain = 0
KSB1 200738Z 13002KT 25/11 A3005 RMK A01 T02510113  RH  042%=      5-min Rain = 0
KSB1 200739Z 13002KT 25/11 A3005 RMK A01 T02510113  RH  042%=      5-min Rain = 0
KSB1 200740Z 14002KT 25/11 A3005 RMK A01 T02510113  RH  042%=      5-min Rain = 0
KSB1 200741Z 13002KT 25/11 A3005 RMK A01 T02510112  RH  042%=      5-min Rain = 0
KSB1 200742Z 13003KT 25/11 A3005 RMK A01 T02520113  RH  042%=      5-min Rain = 0
KSB1 200743Z 13003KT 25/11 A3005 RMK A01 T02520112  RH  042%=      5-min Rain = 0
KSB1 200744Z 10004KT 25/11 A3005 RMK A01 T02520113  RH  042%=      5-min Rain = 0
KSB1 200745Z 08003KT 25/11 A3005 RMK A01 T02520113  RH  042%=      5-min Rain = 0
KSB1 200746Z 08002KT 25/11 A3005 RMK A01 T02510113  RH  042%=      5-min Rain = 0
KSB1 200747Z 08002KT 25/11 A3005 RMK A01 T02500113  RH  042%=      5-min Rain = 0
KSB1 200748Z 08001KT 25/11 A3005 RMK A01 T02490113  RH  042%=      5-min Rain = 0
KSB1 200749Z 13002KT 25/11 A3005 RMK A01 T02490113  RH  042%=      5-min Rain = 0
KSB1 200750Z 13001KT 25/11 A3005 RMK A01 T02480112  RH  043%=      5-min Rain = 0
KSB1 200751Z 00000KT 25/11 A3005 RMK A01 T02480113  RH  043%=      5-min Rain = 0
KSB1 200752Z 13000KT 25/11 A3005 RMK A01 T02480112  RH  043%=      5-min Rain = 0
KSB1 200753Z 00000KT 25/11 A3005 RMK A01 T02470112  RH  043%=      5-min Rain = 0
KSB1 200754Z 03000KT 25/11 A3005 RMK A01 T02470112  RH  043%=      5-min Rain = 0
KSB1 200755Z 05001KT 25/11 A3005 RMK A01 T02470112  RH  043%=      5-min Rain = 0
KSB1 200756Z 08000KT 25/11 A3005 RMK A01 T02470112  RH  043%=      5-min Rain = 0
KSB1 200757Z 11001KT 25/11 A3005 RMK A01 T02470111  RH  043%=      5-min Rain = 0
KSB1 200758Z 09000KT 25/11 A3005 RMK A01 T02470112  RH  042%=      5-min Rain = 0
KSB1 200759Z 07001KT 25/11 A3005 RMK A01 T02470111  RH  042%=      5-min Rain = 0
KSB1 200800Z 09001KT 25/11 A3005 RMK A01 T02470112  RH  043%=      5-min Rain = 0
KSB1 200801Z 05001KT 25/11 A3005 RMK A01 T02470112  RH  043%=      5-min Rain = 0
KSB1 200802Z 06001KT 25/11 A3005 RMK A01 T02470111  RH  042%=      5-min Rain = 0
KSB1 200803Z 08000KT 25/11 A3005 RMK A01 T02480111  RH  042%=      5-min Rain = 0
KSB1 200804Z 07001KT 25/11 A3005 RMK A01 T02480111  RH  042%=      5-min Rain = 0
KSB1 200805Z 00000KT 25/11 A3005 RMK A01 T02480111  RH  042%=      5-min Rain = 0
KSB1 200806Z 00000KT 25/11 A3005 RMK A01 T02480111  RH  042%=      5-min Rain = 0
KSB1 200807Z 00000KT 25/11 A3005 RMK A01 T02480111  RH  042%=      5-min Rain = 0
KSB1 200808Z 00000KT 25/11 A3005 RMK A01 T02490111  RH  042%=      5-min Rain = 0
KSB1 200809Z 17001KT 25/11 A3005 RMK A01 T02490110  RH  042%=      5-min Rain = 0
KSB1 200810Z 16001KT 25/11 A3005 RMK A01 T02500111  RH  041%=      5-min Rain = 0
KSB1 200811Z 00000KT 25/11 A3004 RMK A01 T02510111  RH  041%=      5-min Rain = 0
KSB1 200812Z 00000KT 25/11 A3004 RMK A01 T02510110  RH  041%=      5-min Rain = 0
KSB1 200813Z 18000KT 25/11 A3004 RMK A01 T02510110  RH  041%=      5-min Rain = 0
KSB1 200814Z 23001KT 25/11 A3004 RMK A01 T02510110  RH  041%=      5-min Rain = 0
KSB1 200815Z 22002KT 25/11 A3005 RMK A01 T02520110  RH  041%=      5-min Rain = 0
KSB1 200816Z 23003KT 25/11 A3005 RMK A01 T02520110  RH  041%=      5-min Rain = 0
KSB1 200817Z 24004KT 25/11 A3005 RMK A01 T02520110  RH  041%=      5-min Rain = 0
KSB1 200818Z 25007KT 25/11 A3005 RMK A01 T02500109  RH  041%=      5-min Rain = 0
KSB1 200819Z 24010KT 25/11 A3005 RMK A01 T02470107  RH  041%=      5-min Rain = 0
KSB1 200820Z 26010KT 25/11 A3005 RMK A01 T02450107  RH  042%=      5-min Rain = 0
KSB1 200821Z 24012KT 25/11 A3005 RMK A01 T02450107  RH  042%=      5-min Rain = 0
KSB1 200822Z 24010KT 25/11 A3005 RMK A01 T02470108  RH  042%=      5-min Rain = 0
KSB1 200823Z 23010KT 25/11 A3005 RMK A01 T02480108  RH  041%=      5-min Rain = 0
KSB1 200824Z 22011KT 25/11 A3005 RMK A01 T02490107  RH  041%=      5-min Rain = 0
KSB1 200825Z 22011KT 25/11 A3005 RMK A01 T02520106  RH  040%=      5-min Rain = 0
KSB1 200826Z 22011KT 26/11 A3005 RMK A01 T02560107  RH  039%=      5-min Rain = 0
KSB1 200827Z 21010KT 26/11 A3005 RMK A01 T02580107  RH  039%=      5-min Rain = 0
KSB1 200828Z 21010KT 26/11 A3006 RMK A01 T02590107  RH  039%=      5-min Rain = 0
KSB1 200829Z 21009KT 26/11 A3006 RMK A01 T02590107  RH  038%=      5-min Rain = 0
KSB1 200830Z 21009KT 26/11 A3006 RMK A01 T02590107  RH  038%=      5-min Rain = 0
KSB1 200831Z 21009KT 26/11 A3006 RMK A01 T02590107  RH  038%=      5-min Rain = 0
KSB1 200832Z 22010KT 26/11 A3006 RMK A01 T02580107  RH  039%=      5-min Rain = 0
KSB1 200833Z 22010KT 26/11 A3006 RMK A01 T02580107  RH  039%=      5-min Rain = 0
KSB1 200834Z 22010KT 26/11 A3006 RMK A01 T02580107  RH  039%=      5-min Rain = 0
KSB1 200835Z 22009KT 26/11 A3006 RMK A01 T02580107  RH  039%=      5-min Rain = 0
KSB1 200836Z 22009KT 26/11 A3006 RMK A01 T02580107  RH  039%=      5-min Rain = 0
KSB1 200837Z 22008KT 26/11 A3006 RMK A01 T02580107  RH  039%=      5-min Rain = 0
KSB1 200838Z 22008KT 26/11 A3006 RMK A01 T02580107  RH  039%=      5-min Rain = 0
KSB1 200839Z 23006KT 26/11 A3006 RMK A01 T02570107  RH  039%=      5-min Rain = 0
KSB1 200840Z 23006KT 26/11 A3006 RMK A01 T02560107  RH  039%=      5-min Rain = 0
KSB1 200841Z 22006KT 26/11 A3005 RMK A01 T02550107  RH  039%=      5-min Rain = 0
KSB1 200842Z 22006KT 25/11 A3005 RMK A01 T02540106  RH  040%=      5-min Rain = 0
KSB1 200843Z 22007KT 25/11 A3005 RMK A01 T02520106  RH  040%=      5-min Rain = 0
KSB1 200844Z 23006KT 25/11 A3005 RMK A01 T02520107  RH  040%=      5-min Rain = 0
KSB1 200845Z 22007KT 25/11 A3005 RMK A01 T02520107  RH  040%=      5-min Rain = 0
KSB1 200846Z 22008KT 25/11 A3005 RMK A01 T02510107  RH  040%=      5-min Rain = 0
KSB1 200847Z 23009KT 25/11 A3005 RMK A01 T02510108  RH  041%=      5-min Rain = 0
KSB1 200848Z 23009KT 25/11 A3005 RMK A01 T02540111  RH  041%=      5-min Rain = 0
KSB1 200849Z 23008KT 26/11 A3005 RMK A01 T02560110  RH  040%=      5-min Rain = 0
KSB1 200850Z 23009KT 26/11 A3005 RMK A01 T02580112  RH  040%=      5-min Rain = 0
KSB1 200851Z 23009KT 26/11 A3005 RMK A01 T02590112  RH  040%=      5-min Rain = 0
KSB1 200852Z 23009KT 26/11 A3005 RMK A01 T02590113  RH  040%=      5-min Rain = 0
KSB1 200853Z 23010KT 26/11 A3005 RMK A01 T02590114  RH  040%=      5-min Rain = 0
KSB1 200854Z 23010KT 26/12 A3005 RMK A01 T02590115  RH  041%=      5-min Rain = 0
KSB1 200855Z 23010KT 26/12 A3005 RMK A01 T02590115  RH  041%=      5-min Rain = 0
KSB1 200856Z 23009KT 26/12 A3005 RMK A01 T02610116  RH  040%=      5-min Rain = 0
KSB1 200857Z 23011KT 26/12 A3005 RMK A01 T02610116  RH  040%=      5-min Rain = 0
KSB1 200858Z 23009KT 26/12 A3005 RMK A01 T02620116  RH  040%=      5-min Rain = 0
KSB1 200859Z 23008KT 26/12 A3005 RMK A01 T02640117  RH  040%=      5-min Rain = 0
KSB1 200900Z 23009KT 26/12 A3005 RMK A01 T02620116  RH  040%=      5-min Rain = 0
KSB1 200901Z 22010KT 26/12 A3005 RMK A01 T02610116  RH  040%=      5-min Rain = 0
KSB1 200902Z 23008KT 26/12 A3005 RMK A01 T02610117  RH  040%=      5-min Rain = 0
KSB1 200903Z 23008KT 26/12 A3005 RMK A01 T02610116  RH  040%=      5-min Rain = 0
KSB1 200904Z 23007KT 26/12 A3005 RMK A01 T02610116  RH  041%=      5-min Rain = 0
KSB1 200905Z 23007KT 26/12 A3005 RMK A01 T02600116  RH  041%=      5-min Rain = 0
KSB1 200906Z 23008KT 26/12 A3005 RMK A01 T02580116  RH  041%=      5-min Rain = 0
KSB1 200907Z 22008KT 26/12 A3005 RMK A01 T02570116  RH  041%=      5-min Rain = 0
KSB1 200908Z 23010KT 26/12 A3005 RMK A01 T02570116  RH  041%=      5-min Rain = 0
KSB1 200909Z 23008KT 26/12 A3005 RMK A01 T02570117  RH  042%=      5-min Rain = 0
KSB1 200910Z 24008KT 26/12 A3005 RMK A01 T02580117  RH  041%=      5-min Rain = 0
KSB1 200911Z 23008KT 26/12 A3005 RMK A01 T02590118  RH  041%=      5-min Rain = 0
KSB1 200912Z 23007KT 26/12 A3005 RMK A01 T02600118  RH  041%=      5-min Rain = 0
KSB1 200913Z 23006KT 26/12 A3005 RMK A01 T02610118  RH  041%=      5-min Rain = 0
KSB1 200914Z 23006KT 26/12 A3005 RMK A01 T02590117  RH  041%=      5-min Rain = 0
KSB1 200915Z 23007KT 26/12 A3005 RMK A01 T02580118  RH  042%=      5-min Rain = 0
KSB1 200916Z 22006KT 26/12 A3005 RMK A01 T02570117  RH  042%=      5-min Rain = 0
KSB1 200917Z 21006KT 26/12 A3005 RMK A01 T02560118  RH  042%=      5-min Rain = 0
KSB1 200918Z 23007KT 26/12 A3005 RMK A01 T02550118  RH  042%=      5-min Rain = 0
KSB1 200919Z 22007KT 26/12 A3005 RMK A01 T02550119  RH  042%=      5-min Rain = 0
KSB1 200920Z 21007KT 26/12 A3005 RMK A01 T02560119  RH  042%=      5-min Rain = 0
KSB1 200921Z 22007KT 26/12 A3005 RMK A01 T02550119  RH  042%=      5-min Rain = 0
KSB1 200922Z 22007KT 26/12 A3005 RMK A01 T02550119  RH  043%=      5-min Rain = 0
KSB1 200923Z 21007KT 26/12 A3005 RMK A01 T02560120  RH  043%=      5-min Rain = 0
KSB1 200924Z 21006KT 26/12 A3005 RMK A01 T02560120  RH  043%=      5-min Rain = 0
KSB1 200925Z 21005KT 26/12 A3005 RMK A01 T02580120  RH  042%=      5-min Rain = 0
KSB1 200926Z 21005KT 26/12 A3005 RMK A01 T02570119  RH  042%=      5-min Rain = 0
KSB1 200927Z 22005KT 26/12 A3005 RMK A01 T02550119  RH  043%=      5-min Rain = 0
KSB1 200928Z 22005KT 25/12 A3005 RMK A01 T02530119  RH  043%=      5-min Rain = 0
KSB1 200929Z 22004KT 25/12 A3005 RMK A01 T02520119  RH  043%=      5-min Rain = 0
KSB1 200930Z 23005KT 25/12 A3005 RMK A01 T02520119  RH  044%=      5-min Rain = 0
KSB1 200931Z 21004KT 25/12 A3005 RMK A01 T02510120  RH  044%=      5-min Rain = 0
KSB1 200932Z 21004KT 25/12 A3005 RMK A01 T02510120  RH  044%=      5-min Rain = 0
KSB1 200933Z 21004KT 25/12 A3005 RMK A01 T02500120  RH  044%=      5-min Rain = 0
KSB1 200934Z 21003KT 25/12 A3005 RMK A01 T02500120  RH  044%=      5-min Rain = 0
KSB1 200935Z 23004KT 25/12 A3005 RMK A01 T02500120  RH  044%=      5-min Rain = 0
KSB1 200936Z 22004KT 25/12 A3005 RMK A01 T02490120  RH  044%=      5-min Rain = 0
KSB1 200937Z 22004KT 25/12 A3005 RMK A01 T02490120  RH  044%=      5-min Rain = 0
KSB1 200938Z 21005KT 25/12 A3005 RMK A01 T02490120  RH  044%=      5-min Rain = 0
KSB1 200939Z 20004KT 25/12 A3005 RMK A01 T02490120  RH  044%=      5-min Rain = 0
KSB1 200940Z 20005KT 25/12 A3005 RMK A01 T02490120  RH  045%=      5-min Rain = 0
KSB1 200941Z 20005KT 25/12 A3005 RMK A01 T02480120  RH  045%=      5-min Rain = 0
KSB1 200942Z 20005KT 25/12 A3005 RMK A01 T02470120  RH  045%=      5-min Rain = 0
KSB1 200943Z 22004KT 25/12 A3005 RMK A01 T02460120  RH  045%=      5-min Rain = 0
KSB1 200944Z 22005KT 25/12 A3005 RMK A01 T02450120  RH  045%=      5-min Rain = 0
KSB1 200945Z 21004KT 25/12 A3005 RMK A01 T02460121  RH  046%=      5-min Rain = 0
KSB1 200946Z 21004KT 25/12 A3005 RMK A01 T02470122  RH  045%=      5-min Rain = 0
KSB1 200947Z 21004KT 25/12 A3005 RMK A01 T02480121  RH  045%=      5-min Rain = 0
KSB1 200948Z 22004KT 25/12 A3005 RMK A01 T02480121  RH  045%=      5-min Rain = 0
KSB1 200949Z 22004KT 25/12 A3005 RMK A01 T02480121  RH  045%=      5-min Rain = 0
KSB1 200950Z 23003KT 25/12 A3005 RMK A01 T02470121  RH  045%=      5-min Rain = 0
KSB1 200951Z 23003KT 25/12 A3005 RMK A01 T02470121  RH  045%=      5-min Rain = 0
KSB1 200952Z 23003KT 25/12 A3005 RMK A01 T02460121  RH  045%=      5-min Rain = 0
KSB1 200953Z 23004KT 25/12 A3005 RMK A01 T02460121  RH  046%=      5-min Rain = 0
KSB1 200954Z 23003KT 25/12 A3005 RMK A01 T02450121  RH  046%=      5-min Rain = 0
KSB1 200955Z 22005KT 25/12 A3005 RMK A01 T02450121  RH  046%=      5-min Rain = 0
KSB1 200956Z 22005KT 24/12 A3005 RMK A01 T02440120  RH  046%=      5-min Rain = 0
KSB1 200957Z 22005KT 24/12 A3005 RMK A01 T02410119  RH  046%=      5-min Rain = 0
KSB1 200958Z 22005KT 24/12 A3005 RMK A01 T02390119  RH  047%=      5-min Rain = 0
KSB1 200959Z 22005KT 24/12 A3005 RMK A01 T02380119  RH  047%=      5-min Rain = 0
KSB1 201000Z 22007KT 24/12 A3005 RMK A01 T02370120  RH  048%=      5-min Rain = 0
KSB1 201001Z 21007KT 24/12 A3005 RMK A01 T02370120  RH  048%=      5-min Rain = 0
KSB1 201002Z 21007KT 24/12 A3005 RMK A01 T02370120  RH  048%=      5-min Rain = 0
KSB1 201003Z 21007KT 24/12 A3005 RMK A01 T02380120  RH  048%=      5-min Rain = 0
KSB1 201004Z 21007KT 24/12 A3005 RMK A01 T02390121  RH  048%=      5-min Rain = 0
KSB1 201005Z 22007KT 24/12 A3005 RMK A01 T02410122  RH  047%=      5-min Rain = 0
KSB1 201006Z 23008KT 24/12 A3005 RMK A01 T02420122  RH  047%=      5-min Rain = 0
KSB1 201007Z 23007KT 24/12 A3005 RMK A01 T02420121  RH  047%=      5-min Rain = 0
KSB1 201008Z 23007KT 24/12 A3005 RMK A01 T02430122  RH  047%=      5-min Rain = 0
KSB1 201009Z 23008KT 24/12 A3005 RMK A01 T02440122  RH  047%=      5-min Rain = 0
KSB1 201010Z 22007KT 25/12 A3005 RMK A01 T02450122  RH  046%=      5-min Rain = 0
KSB1 201011Z 22007KT 25/12 A3005 RMK A01 T02460123  RH  046%=      5-min Rain = 0
KSB1 201012Z 21007KT 25/12 A3005 RMK A01 T02460122  RH  046%=      5-min Rain = 0
KSB1 201013Z 21007KT 25/12 A3005 RMK A01 T02450122  RH  046%=      5-min Rain = 0
KSB1 201014Z 21006KT 25/12 A3005 RMK A01 T02450122  RH  046%=      5-min Rain = 0
KSB1 201015Z 20007KT 25/12 A3005 RMK A01 T02450122  RH  046%=      5-min Rain = 0
KSB1 201016Z 20008KT 25/12 A3005 RMK A01 T02450122  RH  046%=      5-min Rain = 0
KSB1 201017Z 20008KT 25/12 A3005 RMK A01 T02450121  RH  046%=      5-min Rain = 0
KSB1 201018Z 20008KT 24/12 A3005 RMK A01 T02440121  RH  046%=      5-min Rain = 0
KSB1 201019Z 21008KT 24/12 A3005 RMK A01 T02430121  RH  047%=      5-min Rain = 0
KSB1 201020Z 21009KT 24/12 A3005 RMK A01 T02420121  RH  047%=      5-min Rain = 0
KSB1 201021Z 21009KT 24/12 A3005 RMK A01 T02420122  RH  047%=      5-min Rain = 0
KSB1 201022Z 21008KT 24/12 A3005 RMK A01 T02430122  RH  047%=      5-min Rain = 0
KSB1 201023Z 21008KT 24/12 A3005 RMK A01 T02430123  RH  047%=      5-min Rain = 0
KSB1 201024Z 21007KT 24/12 A3005 RMK A01 T02430122  RH  047%=      5-min Rain = 0
KSB1 201025Z 22006KT 24/12 A3005 RMK A01 T02430123  RH  047%=      5-min Rain = 0
KSB1 201026Z 22006KT 24/12 A3005 RMK A01 T02430123  RH  047%=      5-min Rain = 0
KSB1 201027Z 22006KT 24/12 A3005 RMK A01 T02430122  RH  047%=      5-min Rain = 0
KSB1 201028Z 22005KT 24/12 A3005 RMK A01 T02430123  RH  047%=      5-min Rain = 0
KSB1 201029Z 22005KT 24/12 A3005 RMK A01 T02430123  RH  047%=      5-min Rain = 0
KSB1 201030Z 22006KT 24/12 A3005 RMK A01 T02430122  RH  047%=      5-min Rain = 0
KSB1 201031Z 22006KT 24/12 A3005 RMK A01 T02430122  RH  047%=      5-min Rain = 0
KSB1 201032Z 22005KT 24/12 A3005 RMK A01 T02430122  RH  047%=      5-min Rain = 0
KSB1 201033Z 23005KT 24/12 A3005 RMK A01 T02430122  RH  047%=      5-min Rain = 0
KSB1 201034Z 22005KT 24/12 A3005 RMK A01 T02430123  RH  047%=      5-min Rain = 0
KSB1 201035Z 22006KT 24/12 A3005 RMK A01 T02440123  RH  047%=      5-min Rain = 0
KSB1 201036Z 21006KT 25/12 A3005 RMK A01 T02450123  RH  046%=      5-min Rain = 0
KSB1 201037Z 22006KT 25/12 A3005 RMK A01 T02450123  RH  046%=      5-min Rain = 0
KSB1 201038Z 22006KT 25/12 A3005 RMK A01 T02450122  RH  046%=      5-min Rain = 0
KSB1 201039Z 22006KT 25/12 A3005 RMK A01 T02450122  RH  046%=      5-min Rain = 0
KSB1 201040Z 22007KT 24/12 A3005 RMK A01 T02430122  RH  047%=      5-min Rain = 0
KSB1 201041Z 22008KT 24/12 A3005 RMK A01 T02430122  RH  047%=      5-min Rain = 0
KSB1 201042Z 22008KT 24/12 A3005 RMK A01 T02440122  RH  047%=      5-min Rain = 0
KSB1 201043Z 22007KT 25/12 A3005 RMK A01 T02450123  RH  046%=      5-min Rain = 0
KSB1 201044Z 22007KT 25/12 A3005 RMK A01 T02460122  RH  046%=      5-min Rain = 0
KSB1 201045Z 22007KT 25/12 A3005 RMK A01 T02460122  RH  046%=      5-min Rain = 0
KSB1 201046Z 22007KT 25/12 A3005 RMK A01 T02460122  RH  046%=      5-min Rain = 0
KSB1 201047Z 22006KT 25/12 A3005 RMK A01 T02450122  RH  046%=      5-min Rain = 0
KSB1 201048Z 22007KT 25/12 A3005 RMK A01 T02450122  RH  046%=      5-min Rain = 0
KSB1 201049Z 23007KT 25/12 A3005 RMK A01 T02450122  RH  046%=      5-min Rain = 0
KSB1 201050Z 23007KT 25/12 A3005 RMK A01 T02450122  RH  046%=      5-min Rain = 0
KSB1 201051Z 23007KT 24/12 A3005 RMK A01 T02440122  RH  046%=      5-min Rain = 0
KSB1 201052Z 23007KT 24/12 A3005 RMK A01 T02440122  RH  046%=      5-min Rain = 0
KSB1 201053Z 23007KT 24/12 A3005 RMK A01 T02440122  RH  046%=      5-min Rain = 0
KSB1 201054Z 23006KT 25/12 A3005 RMK A01 T02460123  RH  046%=      5-min Rain = 0
KSB1 201055Z 22008KT 25/12 A3005 RMK A01 T02470122  RH  046%=      5-min Rain = 0
KSB1 201056Z 23007KT 25/12 A3005 RMK A01 T02470122  RH  046%=      5-min Rain = 0
KSB1 201057Z 23005KT 25/12 A3005 RMK A01 T02480122  RH  046%=      5-min Rain = 0
KSB1 201058Z 22006KT 25/12 A3005 RMK A01 T02480122  RH  045%=      5-min Rain = 0
KSB1 201059Z 24004KT 25/12 A3005 RMK A01 T02490122  RH  045%=      5-min Rain = 0
KSB1 201100Z 24005KT 25/12 A3005 RMK A01 T02480122  RH  045%=      5-min Rain = 0
KSB1 201101Z 23006KT 25/12 A3005 RMK A01 T02470122  RH  046%=      5-min Rain = 0
KSB1 201102Z 24006KT 25/12 A3005 RMK A01 T02470122  RH  046%=      5-min Rain = 0
KSB1 201103Z 24006KT 25/12 A3005 RMK A01 T02460121  RH  046%=      5-min Rain = 0
KSB1 201104Z 23006KT 24/12 A3005 RMK A01 T02440121  RH  046%=      5-min Rain = 0
KSB1 201105Z 24006KT 24/12 A3005 RMK A01 T02430121  RH  046%=      5-min Rain = 0
KSB1 201106Z 24006KT 24/12 A3005 RMK A01 T02420121  RH  047%=      5-min Rain = 0
KSB1 201107Z 24005KT 24/12 A3005 RMK A01 T02420121  RH  047%=      5-min Rain = 0
KSB1 201108Z 24005KT 24/12 A3006 RMK A01 T02410121  RH  047%=      5-min Rain = 0
KSB1 201109Z 24006KT 24/12 A3006 RMK A01 T02400121  RH  047%=      5-min Rain = 0
KSB1 201110Z 24006KT 24/12 A3006 RMK A01 T02380120  RH  048%=      5-min Rain = 0
KSB1 201111Z 24006KT 24/12 A3006 RMK A01 T02380121  RH  048%=      5-min Rain = 0
KSB1 201112Z 24006KT 24/12 A3006 RMK A01 T02380121  RH  048%=      5-min Rain = 0
KSB1 201113Z 23007KT 24/12 A3005 RMK A01 T02380121  RH  048%=      5-min Rain = 0
KSB1 201114Z 23008KT 24/12 A3005 RMK A01 T02380120  RH  048%=      5-min Rain = 0
KSB1 201115Z 23008KT 24/12 A3005 RMK A01 T02370120  RH  048%=      5-min Rain = 0
KSB1 201116Z 23008KT 24/12 A3005 RMK A01 T02360120  RH  048%=      5-min Rain = 0
KSB1 201117Z 23008KT 24/12 A3005 RMK A01 T02360120  RH  048%=      5-min Rain = 0
KSB1 201118Z 22008KT 24/12 A3006 RMK A01 T02360120  RH  048%=      5-min Rain = 0
KSB1 201119Z 23008KT 24/12 A3006 RMK A01 T02360121  RH  048%=      5-min Rain = 0
KSB1 201120Z 23007KT 24/12 A3006 RMK A01 T02360120  RH  048%=      5-min Rain = 0
KSB1 201121Z 23007KT 24/12 A3006 RMK A01 T02360120  RH  048%=      5-min Rain = 0
KSB1 201122Z 23007KT 24/12 A3006 RMK A01 T02360121  RH  048%=      5-min Rain = 0
KSB1 201123Z 23007KT 24/12 A3006 RMK A01 T02360121  RH  048%=      5-min Rain = 0
KSB1 201124Z 22007KT 24/12 A3006 RMK A01 T02350120  RH  048%=      5-min Rain = 0
KSB1 201125Z 22007KT 24/12 A3006 RMK A01 T02350120  RH  048%=      5-min Rain = 0
KSB1 201126Z 22007KT 23/12 A3006 RMK A01 T02340120  RH  049%=      5-min Rain = 0
KSB1 201127Z 23007KT 23/12 A3006 RMK A01 T02340120  RH  049%=      5-min Rain = 0
KSB1 201128Z 23007KT 23/12 A3006 RMK A01 T02330120  RH  049%=      5-min Rain = 0
KSB1 201129Z 22007KT 23/12 A3006 RMK A01 T02330120  RH  049%=      5-min Rain = 0
KSB1 201130Z 22007KT 23/12 A3006 RMK A01 T02330120  RH  049%=      5-min Rain = 0
KSB1 201131Z 22007KT 23/12 A3006 RMK A01 T02330120  RH  049%=      5-min Rain = 0
KSB1 201132Z 22006KT 23/12 A3006 RMK A01 T02320119  RH  049%=      5-min Rain = 0
KSB1 201133Z 23006KT 23/12 A3006 RMK A01 T02320119  RH  049%=      5-min Rain = 0
KSB1 201134Z 23007KT 23/12 A3006 RMK A01 T02320119  RH  049%=      5-min Rain = 0
KSB1 201135Z 23007KT 23/12 A3006 RMK A01 T02320118  RH  049%=      5-min Rain = 0
KSB1 201136Z 23008KT 23/12 A3006 RMK A01 T02330118  RH  048%=      5-min Rain = 0
KSB1 201137Z 23007KT 23/12 A3006 RMK A01 T02330118  RH  048%=      5-min Rain = 0
KSB1 201138Z 23008KT 23/12 A3006 RMK A01 T02320117  RH  048%=      5-min Rain = 0
KSB1 201139Z 23008KT 23/12 A3006 RMK A01 T02320117  RH  048%=      5-min Rain = 0
KSB1 201140Z 23008KT 23/12 A3006 RMK A01 T02320117  RH  048%=      5-min Rain = 0
KSB1 201141Z 23008KT 23/12 A3006 RMK A01 T02330117  RH  048%=      5-min Rain = 0
KSB1 201142Z 23008KT 23/12 A3006 RMK A01 T02320116  RH  048%=      5-min Rain = 0
KSB1 201143Z 23008KT 23/12 A3006 RMK A01 T02320116  RH  048%=      5-min Rain = 0
KSB1 201144Z 23008KT 23/12 A3006 RMK A01 T02330116  RH  048%=      5-min Rain = 0
KSB1 201145Z 23008KT 23/12 A3006 RMK A01 T02330116  RH  048%=      5-min Rain = 0
KSB1 201146Z 23008KT 23/12 A3006 RMK A01 T02330116  RH  048%=      5-min Rain = 0
KSB1 201147Z 23007KT 23/12 A3006 RMK A01 T02330116  RH  048%=      5-min Rain = 0
KSB1 201148Z 23007KT 23/12 A3006 RMK A01 T02340117  RH  048%=      5-min Rain = 0
KSB1 201149Z 23007KT 23/12 A3006 RMK A01 T02330116  RH  048%=      5-min Rain = 0
KSB1 201150Z 23007KT 23/12 A3006 RMK A01 T02330117  RH  048%=      5-min Rain = 0
KSB1 201151Z 23007KT 23/12 A3006 RMK A01 T02330117  RH  048%=      5-min Rain = 0
KSB1 201152Z 23008KT 23/12 A3006 RMK A01 T02320116  RH  048%=      5-min Rain = 0
KSB1 201153Z 23007KT 23/12 A3006 RMK A01 T02320116  RH  048%=      5-min Rain = 0
KSB1 201154Z 23007KT 23/12 A3006 RMK A01 T02320117  RH  048%=      5-min Rain = 0
KSB1 201155Z 24006KT 23/12 A3006 RMK A01 T02320117  RH  048%=      5-min Rain = 0
KSB1 201156Z 24005KT 23/12 A3006 RMK A01 T02310116  RH  048%=      5-min Rain = 0
KSB1 201157Z 25005KT 23/12 A3006 RMK A01 T02310116  RH  048%=      5-min Rain = 0
KSB1 201158Z 24005KT 23/12 A3006 RMK A01 T02300116  RH  049%=      5-min Rain = 0
KSB1 201159Z 25005KT 23/12 A3006 RMK A01 T02300117  RH  049%=      5-min Rain = 0
KSB1 201200Z 25005KT 23/12 A3006 RMK A01 T02290117  RH  049%=      5-min Rain = 0
KSB1 201201Z 25004KT 23/12 A3006 RMK A01 T02290117  RH  049%=      5-min Rain = 0
KSB1 201202Z 25005KT 23/12 A3006 RMK A01 T02290117  RH  049%=      5-min Rain = 0
KSB1 201203Z 24005KT 23/12 A3006 RMK A01 T02290117  RH  049%=      5-min Rain = 0
KSB1 201204Z 25005KT 23/12 A3007 RMK A01 T02290116  RH  049%=      5-min Rain = 0
KSB1 201205Z 25005KT 23/12 A3007 RMK A01 T02290117  RH  049%=      5-min Rain = 0
KSB1 201206Z 26005KT 23/12 A3007 RMK A01 T02300117  RH  049%=      5-min Rain = 0
KSB1 201207Z 27005KT 23/12 A3007 RMK A01 T02300117  RH  049%=      5-min Rain = 0
KSB1 201208Z 27005KT 23/12 A3007 RMK A01 T02300117  RH  049%=      5-min Rain = 0
KSB1 201209Z 27006KT 23/12 A3007 RMK A01 T02310118  RH  049%=      5-min Rain = 0
KSB1 201210Z 26006KT 23/12 A3007 RMK A01 T02330118  RH  048%=      5-min Rain = 0
KSB1 201211Z 27005KT 23/12 A3007 RMK A01 T02340118  RH  048%=      5-min Rain = 0
KSB1 201212Z 27005KT 23/12 A3007 RMK A01 T02330118  RH  048%=      5-min Rain = 0
KSB1 201213Z 27005KT 23/12 A3007 RMK A01 T02340118  RH  048%=      5-min Rain = 0
KSB1 201214Z 27005KT 23/12 A3007 RMK A01 T02340118  RH  048%=      5-min Rain = 0
KSB1 201215Z 27006KT 23/12 A3007 RMK A01 T02340118  RH  048%=      5-min Rain = 0
KSB1 201216Z 27006KT 23/12 A3007 RMK A01 T02340118  RH  048%=      5-min Rain = 0
KSB1 201217Z 26005KT 23/12 A3007 RMK A01 T02340118  RH  048%=      5-min Rain = 0
KSB1 201218Z 26006KT 24/12 A3007 RMK A01 T02350118  RH  048%=      5-min Rain = 0
KSB1 201219Z 26006KT 24/12 A3007 RMK A01 T02350118  RH  048%=      5-min Rain = 0
KSB1 201220Z 26006KT 24/12 A3007 RMK A01 T02360118  RH  047%=      5-min Rain = 0
KSB1 201221Z 26006KT 24/12 A3007 RMK A01 T02360118  RH  047%=      5-min Rain = 0
KSB1 201222Z 26007KT 24/12 A3007 RMK A01 T02360118  RH  047%=      5-min Rain = 0
KSB1 201223Z 26007KT 24/12 A3007 RMK A01 T02360118  RH  047%=      5-min Rain = 0
KSB1 201224Z 27006KT 24/12 A3007 RMK A01 T02360118  RH  047%=      5-min Rain = 0
KSB1 201225Z 27007KT 24/12 A3007 RMK A01 T02360118  RH  047%=      5-min Rain = 0
KSB1 201226Z 25008KT 24/12 A3007 RMK A01 T02360118  RH  047%=      5-min Rain = 0
KSB1 201227Z 25008KT 24/12 A3007 RMK A01 T02380118  RH  047%=      5-min Rain = 0
KSB1 201228Z 26007KT 24/12 A3007 RMK A01 T02400118  RH  047%=      5-min Rain = 0
KSB1 201229Z 26007KT 24/12 A3007 RMK A01 T02400118  RH  046%=      5-min Rain = 0
KSB1 201230Z 26008KT 24/12 A3007 RMK A01 T02390118  RH  047%=      5-min Rain = 0
KSB1 201231Z 26008KT 24/12 A3007 RMK A01 T02390118  RH  047%=      5-min Rain = 0
KSB1 201232Z 26007KT 24/12 A3007 RMK A01 T02390118  RH  047%=      5-min Rain = 0
KSB1 201233Z 27007KT 24/12 A3007 RMK A01 T02390118  RH  047%=      5-min Rain = 0
KSB1 201234Z 26007KT 24/12 A3007 RMK A01 T02390118  RH  047%=      5-min Rain = 0
KSB1 201235Z 26007KT 24/12 A3007 RMK A01 T02390118  RH  047%=      5-min Rain = 0
KSB1 201236Z 27006KT 24/12 A3007 RMK A01 T02390119  RH  047%=      5-min Rain = 0
KSB1 201237Z 27006KT 24/12 A3007 RMK A01 T02390119  RH  047%=      5-min Rain = 0
KSB1 201238Z 27006KT 24/12 A3007 RMK A01 T02390118  RH  047%=      5-min Rain = 0
KSB1 201239Z 26007KT 24/12 A3007 RMK A01 T02390119  RH  047%=      5-min Rain = 0
KSB1 201240Z 27006KT 24/12 A3007 RMK A01 T02390119  RH  047%=      5-min Rain = 0
KSB1 201241Z 26007KT 24/12 A3007 RMK A01 T02390119  RH  047%=      5-min Rain = 0
KSB1 201242Z 26007KT 24/12 A3007 RMK A01 T02400119  RH  047%=      5-min Rain = 0
KSB1 201243Z 26007KT 24/12 A3007 RMK A01 T02400119  RH  047%=      5-min Rain = 0
KSB1 201244Z 26007KT 24/12 A3007 RMK A01 T02410119  RH  046%=      5-min Rain = 0
KSB1 201245Z 26007KT 24/12 A3007 RMK A01 T02420119  RH  046%=      5-min Rain = 0
KSB1 201246Z 26006KT 24/12 A3007 RMK A01 T02440119  RH  046%=      5-min Rain = 0
KSB1 201247Z 26007KT 25/12 A3007 RMK A01 T02450119  RH  045%=      5-min Rain = 0
KSB1 201248Z 26007KT 25/12 A3007 RMK A01 T02460119  RH  045%=      5-min Rain = 0
KSB1 201249Z 25007KT 25/12 A3007 RMK A01 T02480118  RH  044%=      5-min Rain = 0
KSB1 201250Z 27006KT 25/12 A3007 RMK A01 T02520118  RH  043%=      5-min Rain = 0
KSB1 201251Z 25005KT 25/12 A3007 RMK A01 T02540118  RH  043%=      5-min Rain = 0
KSB1 201252Z 26004KT 26/12 A3007 RMK A01 T02550118  RH  042%=      5-min Rain = 0
KSB1 201253Z 26004KT 26/12 A3007 RMK A01 T02560118  RH  042%=      5-min Rain = 0
KSB1 201254Z 27005KT 26/12 A3007 RMK A01 T02560118  RH  042%=      5-min Rain = 0
KSB1 201255Z 26006KT 26/12 A3007 RMK A01 T02570118  RH  042%=      5-min Rain = 0
KSB1 201256Z 26006KT 26/12 A3007 RMK A01 T02580118  RH  042%=      5-min Rain = 0
KSB1 201257Z 26006KT 26/12 A3007 RMK A01 T02590118  RH  041%=      5-min Rain = 0
KSB1 201258Z 27006KT 26/12 A3007 RMK A01 T02600118  RH  041%=      5-min Rain = 0
KSB1 201259Z 26005KT 26/12 A3007 RMK A01 T02600117  RH  041%=      5-min Rain = 0
KSB1 201300Z 27005KT 26/12 A3007 RMK A01 T02610118  RH  041%=      5-min Rain = 0
KSB1 201301Z 25004KT 26/12 A3007 RMK A01 T02610118  RH  041%=      5-min Rain = 0
KSB1 201302Z 25005KT 26/12 A3007 RMK A01 T02610118  RH  041%=      5-min Rain = 0
KSB1 201303Z 26005KT 26/12 A3007 RMK A01 T02610118  RH  041%=      5-min Rain = 0
KSB1 201304Z 26005KT 26/12 A3007 RMK A01 T02610117  RH  041%=      5-min Rain = 0
KSB1 201305Z 26004KT 26/12 A3007 RMK A01 T02620118  RH  041%=      5-min Rain = 0
KSB1 201306Z 24004KT 26/12 A3007 RMK A01 T02620118  RH  041%=      5-min Rain = 0
KSB1 201307Z 25006KT 26/12 A3007 RMK A01 T02620117  RH  040%=      5-min Rain = 0
KSB1 201308Z 26006KT 26/12 A3007 RMK A01 T02620118  RH  040%=      5-min Rain = 0
KSB1 201309Z 26005KT 26/12 A3007 RMK A01 T02630117  RH  040%=      5-min Rain = 0
KSB1 201310Z 25004KT 26/12 A3007 RMK A01 T02640118  RH  040%=      5-min Rain = 0
KSB1 201311Z 25006KT 26/12 A3007 RMK A01 T02640119  RH  040%=      5-min Rain = 0
KSB1 201312Z 25006KT 26/12 A3007 RMK A01 T02640118  RH  040%=      5-min Rain = 0
KSB1 201313Z 24006KT 27/12 A3007 RMK A01 T02650119  RH  040%=      5-min Rain = 0
KSB1 201314Z 24008KT 27/12 A3007 RMK A01 T02650119  RH  040%=      5-min Rain = 0
KSB1 201315Z 23007KT 27/12 A3007 RMK A01 T02650118  RH  040%=      5-min Rain = 0
KSB1 201316Z 24007KT 27/12 A3007 RMK A01 T02650118  RH  040%=      5-min Rain = 0
KSB1 201317Z 24006KT 27/12 A3007 RMK A01 T02650118  RH  040%=      5-min Rain = 0
KSB1 201318Z 24006KT 27/12 A3007 RMK A01 T02650118  RH  040%=      5-min Rain = 0
KSB1 201319Z 24006KT 27/12 A3007 RMK A01 T02660119  RH  040%=      5-min Rain = 0
KSB1 201320Z 24006KT 27/12 A3008 RMK A01 T02670120  RH  040%=      5-min Rain = 0
KSB1 201321Z 24007KT 27/12 A3008 RMK A01 T02670120  RH  040%=      5-min Rain = 0
KSB1 201322Z 26007KT 27/12 A3008 RMK A01 T02670119  RH  040%=      5-min Rain = 0
KSB1 201323Z 25006KT 27/12 A3008 RMK A01 T02680119  RH  040%=      5-min Rain = 0
KSB1 201324Z 26005KT 27/12 A3008 RMK A01 T02680119  RH  040%=      5-min Rain = 0
KSB1 201325Z 26004KT 27/12 A3008 RMK A01 T02680120  RH  040%=      5-min Rain = 0
KSB1 201326Z 27004KT 27/12 A3008 RMK A01 T02680122  RH  040%=      5-min Rain = 0
KSB1 201327Z 28004KT 27/12 A3008 RMK A01 T02680122  RH  040%=      5-min Rain = 0
KSB1 201328Z 27004KT 27/12 A3008 RMK A01 T02670122  RH  040%=      5-min Rain = 0
KSB1 201329Z 27004KT 27/12 A3008 RMK A01 T02680120  RH  040%=      5-min Rain = 0
KSB1 201330Z 26004KT 27/12 A3008 RMK A01 T02680120  RH  040%=      5-min Rain = 0
KSB1 201331Z 27003KT 27/12 A3008 RMK A01 T02680121  RH  040%=      5-min Rain = 0
KSB1 201332Z 27003KT 27/12 A3008 RMK A01 T02690123  RH  040%=      5-min Rain = 0
KSB1 201333Z 29004KT 27/12 A3008 RMK A01 T02690122  RH  040%=      5-min Rain = 0
KSB1 201334Z 28005KT 27/12 A3008 RMK A01 T02700121  RH  040%=      5-min Rain = 0
KSB1 201335Z 28005KT 27/12 A3008 RMK A01 T02700121  RH  039%=      5-min Rain = 0
KSB1 201336Z 28005KT 27/12 A3008 RMK A01 T02700120  RH  039%=      5-min Rain = 0
KSB1 201337Z 28004KT 27/12 A3008 RMK A01 T02700120  RH  039%=      5-min Rain = 0
KSB1 201338Z 28003KT 27/12 A3008 RMK A01 T02700121  RH  039%=      5-min Rain = 0
KSB1 201339Z 29003KT 27/12 A3008 RMK A01 T02710120  RH  039%=      5-min Rain = 0
KSB1 201340Z 29003KT 27/12 A3008 RMK A01 T02720120  RH  039%=      5-min Rain = 0
KSB1 201341Z 29003KT 27/12 A3008 RMK A01 T02720118  RH  038%=      5-min Rain = 0
KSB1 201342Z 29002KT 27/12 A3008 RMK A01 T02730119  RH  038%=      5-min Rain = 0
KSB1 201343Z 29002KT 27/12 A3008 RMK A01 T02730120  RH  039%=      5-min Rain = 0
KSB1 201344Z 30000KT 27/12 A3008 RMK A01 T02730119  RH  038%=      5-min Rain = 0
KSB1 201345Z 36000KT 27/12 A3008 RMK A01 T02740120  RH  038%=      5-min Rain = 0
KSB1 201346Z 02002KT 28/12 A3008 RMK A01 T02750120  RH  038%=      5-min Rain = 0
KSB1 201347Z 04002KT 28/12 A3008 RMK A01 T02780121  RH  038%=      5-min Rain = 0
KSB1 201348Z 03003KT 28/12 A3008 RMK A01 T02790124  RH  038%=      5-min Rain = 0
KSB1 201349Z 02005KT 28/12 A3008 RMK A01 T02810124  RH  038%=      5-min Rain = 0
KSB1 201350Z 03004KT 28/13 A3008 RMK A01 T02800125  RH  038%=      5-min Rain = 0
KSB1 201351Z 03003KT 28/12 A3008 RMK A01 T02770124  RH  039%=      5-min Rain = 0
KSB1 201352Z 02003KT 28/13 A3008 RMK A01 T02760125  RH  039%=      5-min Rain = 0
KSB1 201353Z 01003KT 28/13 A3009 RMK A01 T02760125  RH  039%=      5-min Rain = 0
KSB1 201354Z 36002KT 28/12 A3009 RMK A01 T02750124  RH  039%=      5-min Rain = 0
KSB1 201355Z 00002KT 28/12 A3009 RMK A01 T02760123  RH  039%=      5-min Rain = 0
KSB1 201356Z 01002KT 28/12 A3009 RMK A01 T02770123  RH  039%=      5-min Rain = 0
KSB1 201357Z 00003KT 28/12 A3009 RMK A01 T02780122  RH  038%=      5-min Rain = 0
KSB1 201358Z 01003KT 28/12 A3009 RMK A01 T02770122  RH  038%=      5-min Rain = 0
KSB1 201359Z 01003KT 28/12 A3009 RMK A01 T02770122  RH  038%=      5-min Rain = 0
KSB1 201400Z 02002KT 28/12 A3009 RMK A01 T02770122  RH  038%=      5-min Rain = 0
KSB1 201401Z 03002KT 28/12 A3009 RMK A01 T02770121  RH  038%=      5-min Rain = 0
KSB1 201402Z 02001KT 28/12 A3009 RMK A01 T02770122  RH  038%=      5-min Rain = 0
KSB1 201403Z 04001KT 28/12 A3009 RMK A01 T02780122  RH  038%=      5-min Rain = 0
KSB1 201404Z 07002KT 28/12 A3009 RMK A01 T02800122  RH  038%=      5-min Rain = 0
KSB1 201405Z 06002KT 28/12 A3009 RMK A01 T02810122  RH  037%=      5-min Rain = 0
KSB1 201406Z 07001KT 28/12 A3009 RMK A01 T02810121  RH  037%=      5-min Rain = 0
KSB1 201407Z 04001KT 28/12 A3009 RMK A01 T02820122  RH  037%=      5-min Rain = 0
KSB1 201408Z 04001KT 28/12 A3009 RMK A01 T02820122  RH  037%=      5-min Rain = 0
KSB1 201409Z 04001KT 28/12 A3009 RMK A01 T02820121  RH  037%=      5-min Rain = 0
KSB1 201410Z 03000KT 28/12 A3009 RMK A01 T02820122  RH  037%=      5-min Rain = 0
KSB1 201411Z 03001KT 28/12 A3009 RMK A01 T02820122  RH  037%=      5-min Rain = 0
KSB1 201412Z 05002KT 28/12 A3009 RMK A01 T02810123  RH  037%=      5-min Rain = 0
KSB1 201413Z 06002KT 28/12 A3009 RMK A01 T02830122  RH  037%=      5-min Rain = 0
KSB1 201414Z 08002KT 28/12 A3009 RMK A01 T02840123  RH  037%=      5-min Rain = 0
KSB1 201415Z 07001KT 29/12 A3009 RMK A01 T02850122  RH  036%=      5-min Rain = 0
KSB1 201416Z 05001KT 29/12 A3009 RMK A01 T02850122  RH  037%=      5-min Rain = 0
KSB1 201417Z 05001KT 29/12 A3009 RMK A01 T02860123  RH  036%=      5-min Rain = 0
KSB1 201418Z 05000KT 29/12 A3009 RMK A01 T02880123  RH  036%=      5-min Rain = 0
KSB1 201419Z 07000KT 29/12 A3009 RMK A01 T02890123  RH  036%=      5-min Rain = 0
KSB1 201420Z 08000KT 29/12 A3009 RMK A01 T02900123  RH  036%=      5-min Rain = 0
KSB1 201421Z 04001KT 29/12 A3009 RMK A01 T02930123  RH  035%=      5-min Rain = 0
KSB1 201422Z 02002KT 29/12 A3009 RMK A01 T02940124  RH  035%=      5-min Rain = 0
KSB1 201423Z 36002KT 30/12 A3009 RMK A01 T02950123  RH  035%=      5-min Rain = 0
KSB1 201424Z 03001KT 30/12 A3009 RMK A01 T02950124  RH  035%=      5-min Rain = 0
KSB1 201425Z 01002KT 29/12 A3009 RMK A01 T02930124  RH  035%=      5-min Rain = 0
KSB1 201426Z 02002KT 29/12 A3009 RMK A01 T02920124  RH  035%=      5-min Rain = 0
KSB1 201427Z 06003KT 29/13 A3009 RMK A01 T02910125  RH  036%=      5-min Rain = 0
KSB1 201428Z 06003KT 29/13 A3009 RMK A01 T02910126  RH  036%=      5-min Rain = 0
KSB1 201429Z 05003KT 29/12 A3009 RMK A01 T02910124  RH  036%=      5-min Rain = 0
KSB1 201430Z 02002KT 29/12 A3009 RMK A01 T02910124  RH  036%=      5-min Rain = 0
KSB1 201431Z 03001KT 29/12 A3009 RMK A01 T02910124  RH  036%=      5-min Rain = 0
KSB1 201432Z 06002KT 29/12 A3009 RMK A01 T02910124  RH  036%=      5-min Rain = 0
KSB1 201433Z 05002KT 29/13 A3009 RMK A01 T02930125  RH  036%=      5-min Rain = 0
KSB1 201434Z 02002KT 29/12 A3009 RMK A01 T02930124  RH  035%=      5-min Rain = 0
KSB1 201435Z 06002KT 29/13 A3009 RMK A01 T02930125  RH  036%=      5-min Rain = 0
KSB1 201436Z 01004KT 29/13 A3009 RMK A01 T02940125  RH  035%=      5-min Rain = 0
KSB1 201437Z 32004KT 30/13 A3009 RMK A01 T02950125  RH  035%=      5-min Rain = 0
KSB1 201438Z 34005KT 30/13 A3009 RMK A01 T02950126  RH  035%=      5-min Rain = 0
KSB1 201439Z 35005KT 30/13 A3009 RMK A01 T02950126  RH  035%=      5-min Rain = 0
KSB1 201440Z 36004KT 30/13 A3009 RMK A01 T02950126  RH  035%=      5-min Rain = 0
KSB1 201441Z 01005KT 29/13 A3009 RMK A01 T02940128  RH  036%=      5-min Rain = 0
KSB1 201442Z 36004KT 30/13 A3009 RMK A01 T02950126  RH  036%=      5-min Rain = 0
KSB1 201443Z 32004KT 30/13 A3009 RMK A01 T02950127  RH  036%=      5-min Rain = 0
KSB1 201444Z 28005KT 30/13 A3009 RMK A01 T02950126  RH  036%=      5-min Rain = 0
KSB1 201445Z 31006KT 29/13 A3009 RMK A01 T02930126  RH  036%=      5-min Rain = 0
KSB1 201446Z 34005KT 29/13 A3009 RMK A01 T02910126  RH  036%=      5-min Rain = 0
KSB1 201447Z 34005KT 29/13 A3009 RMK A01 T02910126  RH  036%=      5-min Rain = 0
KSB1 201448Z 33006KT 29/13 A3009 RMK A01 T02920127  RH  036%=      5-min Rain = 0
KSB1 201449Z 31005KT 29/13 A3009 RMK A01 T02920126  RH  036%=      5-min Rain = 0
KSB1 201450Z 29002KT 29/13 A3009 RMK A01 T02920126  RH  036%=      5-min Rain = 0
KSB1 201451Z 26002KT 29/13 A3009 RMK A01 T02920127  RH  036%=      5-min Rain = 0
KSB1 201452Z 30003KT 29/13 A3009 RMK A01 T02920126  RH  036%=      5-min Rain = 0
KSB1 201453Z 33004KT 29/13 A3009 RMK A01 T02920126  RH  036%=      5-min Rain = 0
KSB1 201454Z 33005KT 29/13 A3009 RMK A01 T02920127  RH  036%=      5-min Rain = 0
KSB1 201455Z 33004KT 29/13 A3009 RMK A01 T02940129  RH  036%=      5-min Rain = 0
KSB1 201456Z 33007KT 30/13 A3009 RMK A01 T02970129  RH  036%=      5-min Rain = 0
KSB1 201457Z 34008KT 30/13 A3009 RMK A01 T02990127  RH  035%=      5-min Rain = 0
KSB1 201458Z 33006KT 30/13 A3009 RMK A01 T02980127  RH  035%=      5-min Rain = 0
KSB1 201459Z 34002KT 30/13 A3009 RMK A01 T02960127  RH  035%=      5-min Rain = 0
KSB1 201500Z 34003KT 30/13 A3009 RMK A01 T02950127  RH  036%=      5-min Rain = 0
KSB1 201501Z 34007KT 30/13 A3009 RMK A01 T02950128  RH  036%=      5-min Rain = 0
KSB1 201502Z 34004KT 29/13 A3009 RMK A01 T02940128  RH  036%=      5-min Rain = 0
KSB1 201503Z 33007KT 30/13 A3009 RMK A01 T02960128  RH  036%=      5-min Rain = 0
KSB1 201504Z 34007KT 30/13 A3009 RMK A01 T02980129  RH  035%=      5-min Rain = 0
KSB1 201505Z 34008KT 30/13 A3009 RMK A01 T03000129  RH  035%=      5-min Rain = 0
KSB1 201506Z 34007KT 30/13 A3009 RMK A01 T03000128  RH  035%=      5-min Rain = 0
KSB1 201507Z 34007KT 30/13 A3009 RMK A01 T03000128  RH  035%=      5-min Rain = 0
KSB1 201508Z 31007KT 30/13 A3009 RMK A01 T03020128  RH  034%=      5-min Rain = 0
KSB1 201509Z 30005KT 30/13 A3009 RMK A01 T03030127  RH  034%=      5-min Rain = 0
KSB1 201510Z 34007KT 30/13 A3009 RMK A01 T03020127  RH  034%=      5-min Rain = 0
KSB1 201511Z 32008KT 30/13 A3009 RMK A01 T03000126  RH  034%=      5-min Rain = 0
KSB1 201512Z 31006KT 30/13 A3009 RMK A01 T03010126  RH  034%=      5-min Rain = 0
KSB1 201513Z 29005KT 30/13 A3009 RMK A01 T03000125  RH  034%=      5-min Rain = 0
KSB1 201514Z 31005KT 30/13 A3009 RMK A01 T02990126  RH  035%=      5-min Rain = 0
KSB1 201515Z 31005KT 30/13 A3009 RMK A01 T02990126  RH  035%=      5-min Rain = 0
KSB1 201516Z 32006KT 30/13 A3009 RMK A01 T02980126  RH  035%=      5-min Rain = 0
KSB1 201517Z 30006KT 30/13 A3009 RMK A01 T02990126  RH  035%=      5-min Rain = 0
KSB1 201518Z 30004KT 30/13 A3009 RMK A01 T03000126  RH  034%=      5-min Rain = 0
KSB1 201519Z 31005KT 30/13 A3009 RMK A01 T03020127  RH  034%=      5-min Rain = 0
KSB1 201520Z 28006KT 30/13 A3009 RMK A01 T03040126  RH  033%=      5-min Rain = 0
KSB1 201521Z 29007KT 31/12 A3009 RMK A01 T03050124  RH  033%=      5-min Rain = 0
KSB1 201522Z 29006KT 31/13 A3009 RMK A01 T03060126  RH  033%=      5-min Rain = 0
KSB1 201523Z 31009KT 31/13 A3009 RMK A01 T03060127  RH  033%=      5-min Rain = 0
KSB1 201524Z 32009KT 31/13 A3009 RMK A01 T03050127  RH  034%=      5-min Rain = 0
KSB1 201525Z 31006KT 30/13 A3009 RMK A01 T03030127  RH  034%=      5-min Rain = 0
KSB1 201526Z 32007KT 30/13 A3009 RMK A01 T03030128  RH  034%=      5-min Rain = 0
KSB1 201527Z 32008KT 30/13 A3009 RMK A01 T03040127  RH  034%=      5-min Rain = 0
KSB1 201528Z 31008KT 31/13 A3009 RMK A01 T03070127  RH  033%=      5-min Rain = 0
KSB1 201529Z 32009KT 31/13 A3009 RMK A01 T03070126  RH  033%=      5-min Rain = 0
KSB1 201530Z 31009KT 31/12 A3009 RMK A01 T03060123  RH  033%=      5-min Rain = 0
KSB1 201531Z 32009KT 31/12 A3009 RMK A01 T03050122  RH  033%=      5-min Rain = 0
KSB1 201532Z 32009KT 30/12 A3009 RMK A01 T03040124  RH  033%=      5-min Rain = 0
KSB1 201533Z 32007KT 30/12 A3009 RMK A01 T03030124  RH  033%=      5-min Rain = 0
KSB1 201534Z 32007KT 30/12 A3009 RMK A01 T03030124  RH  033%=      5-min Rain = 0
KSB1 201535Z 30008KT 31/12 A3009 RMK A01 T03060122  RH  032%=      5-min Rain = 0
KSB1 201536Z 32009KT 31/12 A3009 RMK A01 T03070124  RH  032%=      5-min Rain = 0
KSB1 201537Z 32008KT 31/12 A3009 RMK A01 T03070123  RH  032%=      5-min Rain = 0
KSB1 201538Z 33007KT 31/12 A3009 RMK A01 T03050122  RH  033%=      5-min Rain = 0
KSB1 201539Z 31007KT 30/12 A3009 RMK A01 T03040122  RH  033%=      5-min Rain = 0
KSB1 201540Z 31006KT 30/12 A3009 RMK A01 T03030122  RH  033%=      5-min Rain = 0
KSB1 201541Z 31007KT 30/12 A3009 RMK A01 T03030124  RH  033%=      5-min Rain = 0
KSB1 201542Z 31007KT 30/13 A3009 RMK A01 T03030125  RH  034%=      5-min Rain = 0
KSB1 201543Z 31004KT 30/13 A3009 RMK A01 T03030125  RH  034%=      5-min Rain = 0
KSB1 201544Z 30006KT 30/13 A3009 RMK A01 T03040126  RH  034%=      5-min Rain = 0
KSB1 201545Z 31007KT 30/13 A3009 RMK A01 T03040125  RH  033%=      5-min Rain = 0
KSB1 201546Z 30005KT 30/13 A3009 RMK A01 T03030126  RH  034%=      5-min Rain = 0
KSB1 201547Z 33003KT 30/13 A3009 RMK A01 T03010126  RH  034%=      5-min Rain = 0
KSB1 201548Z 35007KT 30/13 A3009 RMK A01 T03020126  RH  034%=      5-min Rain = 0
KSB1 201549Z 34009KT 30/13 A3009 RMK A01 T03040126  RH  034%=      5-min Rain = 0
KSB1 201550Z 32008KT 31/13 A3009 RMK A01 T03060125  RH  033%=      5-min Rain = 0
KSB1 201551Z 33006KT 31/13 A3009 RMK A01 T03050125  RH  033%=      5-min Rain = 0
KSB1 201552Z 33007KT 31/13 A3009 RMK A01 T03070125  RH  033%=      5-min Rain = 0
KSB1 201553Z 33007KT 31/13 A3009 RMK A01 T03090126  RH  032%=      5-min Rain = 0
KSB1 201554Z 34010KT 31/13 A3009 RMK A01 T03110125  RH  032%=      5-min Rain = 0
KSB1 201555Z 33008KT 31/13 A3009 RMK A01 T03110125  RH  032%=      5-min Rain = 0
KSB1 201556Z 33005KT 31/12 A3009 RMK A01 T03090124  RH  032%=      5-min Rain = 0
KSB1 201557Z 32007KT 31/13 A3009 RMK A01 T03070125  RH  033%=      5-min Rain = 0
KSB1 201558Z 30006KT 31/13 A3009 RMK A01 T03070125  RH  033%=      5-min Rain = 0
KSB1 201559Z 30008KT 31/12 A3009 RMK A01 T03080122  RH  032%=      5-min Rain = 0
KSB1 201600Z 31006KT 31/12 A3009 RMK A01 T03070121  RH  032%=      5-min Rain = 0
KSB1 201601Z 33006KT 31/12 A3009 RMK A01 T03060123  RH  033%=      5-min Rain = 0
KSB1 201602Z 31006KT 31/12 A3009 RMK A01 T03080122  RH  032%=      5-min Rain = 0
KSB1 201603Z 29008KT 31/12 A3009 RMK A01 T03080123  RH  032%=      5-min Rain = 0
KSB1 201604Z 30009KT 31/12 A3009 RMK A01 T03070123  RH  032%=      5-min Rain = 0
KSB1 201605Z 31007KT 31/12 A3009 RMK A01 T03070123  RH  032%=      5-min Rain = 0
KSB1 201606Z 29006KT 31/12 A3009 RMK A01 T03060123  RH  032%=      5-min Rain = 0
KSB1 201607Z 34007KT 31/12 A3009 RMK A01 T03080123  RH  032%=      5-min Rain = 0
KSB1 201608Z 32007KT 31/13 A3009 RMK A01 T03100125  RH  032%=      5-min Rain = 0
KSB1 201609Z 32007KT 31/13 A3009 RMK A01 T03110125  RH  032%=      5-min Rain = 0
KSB1 201610Z 31006KT 31/12 A3009 RMK A01 T03130123  RH  031%=      5-min Rain = 0
KSB1 201611Z 34005KT 31/13 A3008 RMK A01 T03120125  RH  032%=      5-min Rain = 0
KSB1 201612Z 35005KT 31/13 A3008 RMK A01 T03110127  RH  032%=      5-min Rain = 0
KSB1 201613Z 34008KT 31/13 A3008 RMK A01 T03140126  RH  032%=      5-min Rain = 0
KSB1 201614Z 31009KT 32/12 A3008 RMK A01 T03160124  RH  031%=      5-min Rain = 0
KSB1 201615Z 32005KT 31/13 A3008 RMK A01 T03140125  RH  031%=      5-min Rain = 0
KSB1 201616Z 33006KT 31/12 A3008 RMK A01 T03140124  RH  031%=      5-min Rain = 0
KSB1 201617Z 34006KT 31/12 A3008 RMK A01 T03130124  RH  032%=      5-min Rain = 0
KSB1 201618Z 33008KT 31/12 A3008 RMK A01 T03130123  RH  031%=      5-min Rain = 0
KSB1 201619Z 34008KT 32/12 A3009 RMK A01 T03150123  RH  031%=      5-min Rain = 0
KSB1 201620Z 34010KT 32/12 A3009 RMK A01 T03150122  RH  031%=      5-min Rain = 0
KSB1 201621Z 34010KT 31/12 A3009 RMK A01 T03140123  RH  031%=      5-min Rain = 0
KSB1 201622Z 34011KT 31/12 A3009 RMK A01 T03140122  RH  031%=      5-min Rain = 0
KSB1 201623Z 33008KT 31/12 A3009 RMK A01 T03140123  RH  031%=      5-min Rain = 0
KSB1 201624Z 34009KT 32/13 A3009 RMK A01 T03150125  RH  031%=      5-min Rain = 0
KSB1 201625Z 33007KT 32/13 A3009 RMK A01 T03150125  RH  031%=      5-min Rain = 0
KSB1 201626Z 33006KT 32/12 A3009 RMK A01 T03170124  RH  031%=      5-min Rain = 0
KSB1 201627Z 33005KT 32/12 A3009 RMK A01 T03160124  RH  031%=      5-min Rain = 0
KSB1 201628Z 33007KT 32/12 A3009 RMK A01 T03160124  RH  031%=      5-min Rain = 0
KSB1 201629Z 34009KT 32/13 A3009 RMK A01 T03170125  RH  031%=      5-min Rain = 0
KSB1 201630Z 34010KT 32/13 A3009 RMK A01 T03170125  RH  031%=      5-min Rain = 0
KSB1 201631Z 35009KT 32/13 A3009 RMK A01 T03180125  RH  031%=      5-min Rain = 0
KSB1 201632Z 34007KT 32/12 A3009 RMK A01 T03180124  RH  031%=      5-min Rain = 0
KSB1 201633Z 34008KT 32/12 A3009 RMK A01 T03180124  RH  031%=      5-min Rain = 0
KSB1 201634Z 32004KT 32/13 A3009 RMK A01 T03150125  RH  031%=      5-min Rain = 0
KSB1 201635Z 33004KT 31/13 A3009 RMK A01 T03140125  RH  031%=      5-min Rain = 0
KSB1 201636Z 33007KT 31/12 A3009 RMK A01 T03140124  RH  031%=      5-min Rain = 0
KSB1 201637Z 34009KT 32/12 A3009 RMK A01 T03150122  RH  031%=      5-min Rain = 0
KSB1 201638Z 33008KT 32/12 A3009 RMK A01 T03180124  RH  031%=      5-min Rain = 0
KSB1 201639Z 31006KT 32/12 A3009 RMK A01 T03200123  RH  030%=      5-min Rain = 0
KSB1 201640Z 32005KT 32/12 A3009 RMK A01 T03200124  RH  030%=      5-min Rain = 0
KSB1 201641Z 33007KT 32/12 A3009 RMK A01 T03210124  RH  030%=      5-min Rain = 0
KSB1 201642Z 31008KT 32/12 A3009 RMK A01 T03200124  RH  030%=      5-min Rain = 0
KSB1 201643Z 31010KT 32/13 A3009 RMK A01 T03200125  RH  030%=      5-min Rain = 0
KSB1 201644Z 30009KT 32/12 A3009 RMK A01 T03200124  RH  030%=      5-min Rain = 0
KSB1 201645Z 33009KT 32/13 A3009 RMK A01 T03200126  RH  031%=      5-min Rain = 0
KSB1 201646Z 32007KT 32/13 A3009 RMK A01 T03180126  RH  031%=      5-min Rain = 0
KSB1 201647Z 31009KT 32/13 A3009 RMK A01 T03180125  RH  031%=      5-min Rain = 0
KSB1 201648Z 31010KT 32/12 A3009 RMK A01 T03170124  RH  031%=      5-min Rain = 0
KSB1 201649Z 31008KT 32/12 A3009 RMK A01 T03180123  RH  030%=      5-min Rain = 0
KSB1 201650Z 30008KT 32/12 A3009 RMK A01 T03170124  RH  031%=      5-min Rain = 0
KSB1 201651Z 32008KT 32/12 A3009 RMK A01 T03160124  RH  031%=      5-min Rain = 0
KSB1 201652Z 33004KT 32/12 A3009 RMK A01 T03190124  RH  031%=      5-min Rain = 0
KSB1 201653Z 26003KT 32/12 A3009 RMK A01 T03180124  RH  031%=      5-min Rain = 0
KSB1 201654Z 26004KT 32/13 A3009 RMK A01 T03170125  RH  031%=      5-min Rain = 0
KSB1 201655Z 29004KT 32/13 A3009 RMK A01 T03180125  RH  031%=      5-min Rain = 0
KSB1 201656Z 30010G17KT 32/13 A3009 RMK A01 T03200125  RH  030%=      5-min Rain = 0
KSB1 201657Z 30006KT 32/12 A3009 RMK A01 T03210124  RH  030%=      5-min Rain = 0
KSB1 201658Z 29005KT 32/12 A3009 RMK A01 T03220122  RH  029%=      5-min Rain = 0
KSB1 201659Z 28006KT 32/12 A3009 RMK A01 T03220123  RH  030%=      5-min Rain = 0
KSB1 201700Z 32005KT 32/12 A3009 RMK A01 T03210122  RH  030%=      5-min Rain = 0
KSB1 201701Z 31010KT 32/12 A3009 RMK A01 T03210123  RH  030%=      5-min Rain = 0
KSB1 201702Z 30009KT 32/12 A3009 RMK A01 T03240119  RH  029%=      5-min Rain = 0
KSB1 201703Z 29006KT 32/12 A3009 RMK A01 T03210121  RH  029%=      5-min Rain = 0
KSB1 201704Z 28004KT 32/12 A3009 RMK A01 T03200121  RH  030%=      5-min Rain = 0
KSB1 201705Z 33006G11KT 32/12 A3009 RMK A01 T03200120  RH  029%=      5-min Rain = 0
KSB1 201706Z 33006KT 32/12 A3009 RMK A01 T03230121  RH  029%=      5-min Rain = 0
KSB1 201707Z 35005KT 33/12 A3009 RMK A01 T03250121  RH  029%=      5-min Rain = 0
KSB1 201708Z 33004KT 32/12 A3009 RMK A01 T03240121  RH  029%=      5-min Rain = 0
KSB1 201709Z 32008KT 32/12 A3009 RMK A01 T03240121  RH  029%=      5-min Rain = 0
KSB1 201710Z 34004KT 32/12 A3009 RMK A01 T03240121  RH  029%=      5-min Rain = 0
KSB1 201711Z 35008KT 32/12 A3009 RMK A01 T03220120  RH  029%=      5-min Rain = 0
KSB1 201712Z 34009KT 32/12 A3009 RMK A01 T03230120  RH  029%=      5-min Rain = 0
KSB1 201713Z 33009KT 33/12 A3009 RMK A01 T03270118  RH  028%=      5-min Rain = 0
KSB1 201714Z 32007KT 33/12 A3009 RMK A01 T03270118  RH  028%=      5-min Rain = 0
KSB1 201715Z 34004KT 32/12 A3009 RMK A01 T03240119  RH  029%=      5-min Rain = 0
KSB1 201716Z 01004G9KT 32/12 A3009 RMK A01 T03220119  RH  029%=      5-min Rain = 0
KSB1 201717Z 35010KT 32/12 A3009 RMK A01 T03230120  RH  029%=      5-min Rain = 0
KSB1 201718Z 36011KT 33/12 A3009 RMK A01 T03260122  RH  029%=      5-min Rain = 0
KSB1 201719Z 34010KT 33/12 A3009 RMK A01 T03270121  RH  029%=      5-min Rain = 0
KSB1 201720Z 34008KT 33/12 A3009 RMK A01 T03270120  RH  028%=      5-min Rain = 0
KSB1 201721Z 32008KT 33/12 A3009 RMK A01 T03270115  RH  027%=      5-min Rain = 0
KSB1 201722Z 29007KT 33/12 A3009 RMK A01 T03300117  RH  027%=      5-min Rain = 0
KSB1 201723Z 28007KT 33/11 A3009 RMK A01 T03320114  RH  026%=      5-min Rain = 0
KSB1 201724Z 27005G10KT 33/11 A3009 RMK A01 T03280114  RH  027%=      5-min Rain = 0
KSB1 201725Z 32008KT 33/12 A3009 RMK A01 T03280118  RH  028%=      5-min Rain = 0
KSB1 201726Z 32008KT 33/12 A3009 RMK A01 T03290119  RH  028%=      5-min Rain = 0
KSB1 201727Z 33004KT 33/12 A3009 RMK A01 T03260116  RH  028%=      5-min Rain = 0
KSB1 201728Z 01003KT 32/12 A3009 RMK A01 T03240115  RH  028%=      5-min Rain = 0
KSB1 201729Z 34004KT 33/12 A3009 RMK A01 T03250117  RH  028%=      5-min Rain = 0
KSB1 201730Z 33008KT 33/12 A3009 RMK A01 T03290120  RH  028%=      5-min Rain = 0
KSB1 201731Z 33008KT 33/12 A3009 RMK A01 T03340119  RH  027%=      5-min Rain = 0
KSB1 201732Z 33008KT 33/12 A3009 RMK A01 T03340122  RH  027%=      5-min Rain = 0
KSB1 201733Z 30003KT 33/12 A3009 RMK A01 T03340122  RH  027%=      5-min Rain = 0
KSB1 201734Z 33010KT 34/12 A3009 RMK A01 T03350122  RH  027%=      5-min Rain = 0
KSB1 201735Z 31007KT 34/12 A3009 RMK A01 T03360120  RH  027%=      5-min Rain = 0
KSB1 201736Z 31005KT 34/12 A3009 RMK A01 T03350120  RH  027%=      5-min Rain = 0
KSB1 201737Z 36005KT 33/12 A3009 RMK A01 T03340118  RH  027%=      5-min Rain = 0
KSB1 201738Z 00004KT 33/12 A3009 RMK A01 T03310119  RH  027%=      5-min Rain = 0
KSB1 201739Z 35011KT 33/12 A3009 RMK A01 T03290120  RH  028%=      5-min Rain = 0
KSB1 201740Z 35010KT 33/12 A3009 RMK A01 T03310120  RH  028%=      5-min Rain = 0
KSB1 201741Z 35009KT 33/12 A3009 RMK A01 T03320121  RH  028%=      5-min Rain = 0
KSB1 201742Z 35010KT 33/12 A3009 RMK A01 T03330121  RH  028%=      5-min Rain = 0
KSB1 201743Z 36009KT 33/12 A3009 RMK A01 T03340121  RH  028%=      5-min Rain = 0
KSB1 201744Z 35007KT 33/12 A3009 RMK A01 T03330120  RH  027%=      5-min Rain = 0
KSB1 201745Z 36006KT 33/12 A3009 RMK A01 T03290119  RH  028%=      5-min Rain = 0
KSB1 201746Z 01006KT 33/12 A3009 RMK A01 T03290118  RH  028%=      5-min Rain = 0
KSB1 201747Z 00006KT 33/12 A3009 RMK A01 T03280118  RH  028%=      5-min Rain = 0
KSB1 201748Z 00007KT 33/12 A3009 RMK A01 T03280117  RH  028%=      5-min Rain = 0
KSB1 201749Z 34006KT 33/12 A3009 RMK A01 T03300117  RH  027%=      5-min Rain = 0
KSB1 201750Z 33006KT 33/12 A3009 RMK A01 T03320120  RH  028%=      5-min Rain = 0
KSB1 201751Z 34008KT 33/12 A3009 RMK A01 T03340121  RH  027%=      5-min Rain = 0
KSB1 201752Z 34006KT 34/12 A3009 RMK A01 T03360120  RH  027%=      5-min Rain = 0
KSB1 201753Z 30006KT 33/12 A3009 RMK A01 T03340120  RH  027%=      5-min Rain = 0
KSB1 201754Z 31006KT 33/12 A3009 RMK A01 T03340120  RH  027%=      5-min Rain = 0
KSB1 201755Z 33006KT 34/12 A3009 RMK A01 T03380120  RH  027%=      5-min Rain = 0
KSB1 201756Z 34005KT 34/12 A3009 RMK A01 T03380119  RH  026%=      5-min Rain = 0
KSB1 201757Z 00002KT 34/12 A3009 RMK A01 T03350118  RH  027%=      5-min Rain = 0
KSB1 201758Z 02003KT 33/12 A3009 RMK A01 T03320118  RH  027%=      5-min Rain = 0
KSB1 201759Z 04003KT 33/12 A3009 RMK A01 T03310119  RH  028%=      5-min Rain = 0
KSB1 201800Z 35006KT 33/12 A3009 RMK A01 T03310118  RH  027%=      5-min Rain = 0
KSB1 201801Z 29011KT 34/12 A3009 RMK A01 T03360120  RH  027%=      5-min Rain = 0
KSB1 201802Z 26009KT 34/12 A3009 RMK A01 T03420117  RH  026%=      5-min Rain = 0
KSB1 201803Z 27008KT 34/11 A3009 RMK A01 T03390114  RH  026%=      5-min Rain = 0
KSB1 201804Z 28005KT 34/12 A3009 RMK A01 T03370115  RH  026%=      5-min Rain = 0
KSB1 201805Z 26006KT 34/12 A3009 RMK A01 T03380117  RH  026%=      5-min Rain = 0
KSB1 201806Z 27008KT 34/12 A3008 RMK A01 T03400116  RH  026%=      5-min Rain = 0
KSB1 201807Z 27005KT 34/12 A3009 RMK A01 T03400116  RH  026%=      5-min Rain = 0
KSB1 201808Z 28010KT 34/12 A3008 RMK A01 T03420116  RH  025%=      5-min Rain = 0
KSB1 201809Z 29008KT 34/12 A3009 RMK A01 T03420115  RH  025%=      5-min Rain = 0
KSB1 201810Z 30006KT 34/11 A3009 RMK A01 T03400114  RH  025%=      5-min Rain = 0
KSB1 201811Z 33002KT 34/11 A3008 RMK A01 T03360114  RH  026%=      5-min Rain = 0
KSB1 201812Z 26008KT 34/11 A3008 RMK A01 T03350114  RH  026%=      5-min Rain = 0
KSB1 201813Z 26012KT 34/11 A3008 RMK A01 T03360112  RH  026%=      5-min Rain = 0
KSB1 201814Z 27009KT 34/11 A3008 RMK A01 T03370112  RH  025%=      5-min Rain = 0
KSB1 201815Z 26009KT 34/11 A3008 RMK A01 T03370111  RH  025%=      5-min Rain = 0
KSB1 201816Z 26005KT 33/11 A3009 RMK A01 T03340110  RH  026%=      5-min Rain = 0
KSB1 201817Z 22004KT 33/11 A3008 RMK A01 T03320111  RH  026%=      5-min Rain = 0
KSB1 201818Z 24006KT 33/11 A3008 RMK A01 T03330111  RH  026%=      5-min Rain = 0
KSB1 201819Z 25002KT 33/11 A3008 RMK A01 T03330110  RH  026%=      5-min Rain = 0
KSB1 201820Z 29004KT 33/11 A3008 RMK A01 T03320111  RH  026%=      5-min Rain = 0
KSB1 201821Z 25008KT 33/11 A3008 RMK A01 T03340112  RH  026%=      5-min Rain = 0
KSB1 201822Z 25005KT 34/11 A3008 RMK A01 T03350112  RH  026%=      5-min Rain = 0
KSB1 201823Z 29009KT 34/11 A3008 RMK A01 T03360112  RH  026%=      5-min Rain = 0
KSB1 201824Z 29009KT 34/11 A3008 RMK A01 T03400111  RH  025%=      5-min Rain = 0
KSB1 201825Z 27007KT 34/11 A3008 RMK A01 T03400108  RH  024%=      5-min Rain = 0
KSB1 201826Z 28004G9KT 34/11 A3008 RMK A01 T03370108  RH  025%=      5-min Rain = 0
KSB1 201827Z 31008KT 34/11 A3008 RMK A01 T03370110  RH  025%=      5-min Rain = 0
KSB1 201828Z 31008KT 34/11 A3008 RMK A01 T03400110  RH  025%=      5-min Rain = 0
KSB1 201829Z 29007KT 34/11 A3008 RMK A01 T03440112  RH  024%=      5-min Rain = 0
KSB1 201830Z 31006KT 35/11 A3008 RMK A01 T03470111  RH  024%=      5-min Rain = 0
KSB1 201831Z 29009KT 35/11 A3008 RMK A01 T03480112  RH  024%=      5-min Rain = 0
KSB1 201832Z 30008KT 35/11 A3008 RMK A01 T03450110  RH  024%=      5-min Rain = 0
KSB1 201833Z 32007KT 34/11 A3008 RMK A01 T03430109  RH  024%=      5-min Rain = 0
KSB1 201834Z 34008KT 34/11 A3008 RMK A01 T03400109  RH  024%=      5-min Rain = 0
KSB1 201835Z 31007KT 34/11 A3008 RMK A01 T03410110  RH  025%=      5-min Rain = 0
KSB1 201836Z 31004KT 34/11 A3008 RMK A01 T03430110  RH  024%=      5-min Rain = 0
KSB1 201837Z 29004KT 34/11 A3008 RMK A01 T03400110  RH  025%=      5-min Rain = 0
KSB1 201838Z 31010KT 34/11 A3008 RMK A01 T03410111  RH  025%=      5-min Rain = 0
KSB1 201839Z 33006KT 34/11 A3008 RMK A01 T03420109  RH  024%=      5-min Rain = 0
KSB1 201840Z 33004KT 34/11 A3007 RMK A01 T03410111  RH  025%=      5-min Rain = 0
KSB1 201841Z 35003KT 34/11 A3007 RMK A01 T03420111  RH  025%=      5-min Rain = 0
KSB1 201842Z 25011G18KT 35/11 A3007 RMK A01 T03450112  RH  024%=      5-min Rain = 0
KSB1 201843Z 27007G12KT 35/11 A3007 RMK A01 T03490112  RH  024%=      5-min Rain = 0
KSB1 201844Z 29011G17KT 35/11 A3007 RMK A01 T03500112  RH  024%=      5-min Rain = 0
KSB1 201845Z 32007KT 35/11 A3007 RMK A01 T03510112  RH  024%=      5-min Rain = 0
KSB1 201846Z 32009KT 35/11 A3007 RMK A01 T03520112  RH  023%=      5-min Rain = 0
KSB1 201847Z 32008KT 35/11 A3007 RMK A01 T03490111  RH  024%=      5-min Rain = 0
KSB1 201848Z 29007KT 35/11 A3007 RMK A01 T03450110  RH  024%=      5-min Rain = 0
KSB1 201849Z 32006G11KT 34/11 A3007 RMK A01 T03410110  RH  024%=      5-min Rain = 0
KSB1 201850Z 33011KT 35/11 A3007 RMK A01 T03450111  RH  024%=      5-min Rain = 0
KSB1 201851Z 34008KT 35/11 A3007 RMK A01 T03480108  RH  023%=      5-min Rain = 0
KSB1 201852Z 31006KT 35/11 A3007 RMK A01 T03450109  RH  024%=      5-min Rain = 0
KSB1 201853Z 29009KT 35/11 A3007 RMK A01 T03460110  RH  024%=      5-min Rain = 0
KSB1 201854Z 27009KT 35/11 A3007 RMK A01 T03450110  RH  024%=      5-min Rain = 0
KSB1 201855Z 25006KT 34/11 A3007 RMK A01 T03400108  RH  024%=      5-min Rain = 0
KSB1 201856Z 24007KT 34/11 A3007 RMK A01 T03390108  RH  025%=      5-min Rain = 0
KSB1 201857Z 21007KT 34/11 A3007 RMK A01 T03380107  RH  024%=      5-min Rain = 0
KSB1 201858Z 19006KT 34/11 A3007 RMK A01 T03350107  RH  025%=      5-min Rain = 0
KSB1 201859Z 17005KT 33/11 A3007 RMK A01 T03340106  RH  025%=      5-min Rain = 0
KSB1 201900Z 16004KT 34/11 A3007 RMK A01 T03350107  RH  025%=      5-min Rain = 0
KSB1 201901Z 27002KT 34/11 A3007 RMK A01 T03380108  RH  025%=      5-min Rain = 0
KSB1 201902Z 31005KT 34/11 A3007 RMK A01 T03420109  RH  024%=      5-min Rain = 0
KSB1 201903Z 30007KT 35/11 A3007 RMK A01 T03460108  RH  024%=      5-min Rain = 0
KSB1 201904Z 29009KT 35/10 A3007 RMK A01 T03460104  RH  023%=      5-min Rain = 0
KSB1 201905Z 30010KT 35/10 A3007 RMK A01 T03470103  RH  023%=      5-min Rain = 0
KSB1 201906Z 30007KT 35/10 A3007 RMK A01 T03460102  RH  023%=      5-min Rain = 0
KSB1 201907Z 30005KT 34/10 A3007 RMK A01 T03430102  RH  023%=      5-min Rain = 0
KSB1 201908Z 32005KT 34/10 A3007 RMK A01 T03420103  RH  023%=      5-min Rain = 0
KSB1 201909Z 31007KT 34/11 A3007 RMK A01 T03440105  RH  023%=      5-min Rain = 0
KSB1 201910Z 34004KT 35/11 A3007 RMK A01 T03460105  RH  023%=      5-min Rain = 0
KSB1 201911Z 31009KT 35/11 A3007 RMK A01 T03480106  RH  023%=      5-min Rain = 0
KSB1 201912Z 29012KT 35/11 A3007 RMK A01 T03530105  RH  022%=      5-min Rain = 0
KSB1 201913Z 28010KT 35/10 A3007 RMK A01 T03540104  RH  022%=      5-min Rain = 0
KSB1 201914Z 29008KT 35/10 A3007 RMK A01 T03530102  RH  022%=      5-min Rain = 0
KSB1 201915Z 30007KT 35/10 A3007 RMK A01 T03470098  RH  022%=      5-min Rain = 0
KSB1 201916Z 30004KT 34/10 A3007 RMK A01 T03440099  RH  022%=      5-min Rain = 0
KSB1 201917Z 33007KT 34/10 A3007 RMK A01 T03430100  RH  023%=      5-min Rain = 0
KSB1 201918Z 34007KT 35/10 A3006 RMK A01 T03460099  RH  022%=      5-min Rain = 0
KSB1 201919Z 00006KT 35/10 A3006 RMK A01 T03470099  RH  022%=      5-min Rain = 0
KSB1 201920Z 34003KT 35/10 A3006 RMK A01 T03490098  RH  022%=      5-min Rain = 0
KSB1 201921Z 28006KT 35/10 A3006 RMK A01 T03510098  RH  021%=      5-min Rain = 0
KSB1 201922Z 28006KT 35/10 A3006 RMK A01 T03510097  RH  021%=      5-min Rain = 0
KSB1 201923Z 29003KT 35/09 A3006 RMK A01 T03490094  RH  021%=      5-min Rain = 0
KSB1 201924Z 34001KT 35/09 A3006 RMK A01 T03460093  RH  021%=      5-min Rain = 0
KSB1 201925Z 30001KT 35/10 A3006 RMK A01 T03460095  RH  021%=      5-min Rain = 0
KSB1 201926Z 31004KT 35/10 A3006 RMK A01 T03470095  RH  021%=      5-min Rain = 0
KSB1 201927Z 29003KT 35/10 A3006 RMK A01 T03470096  RH  022%=      5-min Rain = 0
KSB1 201928Z 27001KT 35/10 A3006 RMK A01 T03460097  RH  022%=      5-min Rain = 0
KSB1 201929Z 16002KT 35/10 A3006 RMK A01 T03460098  RH  022%=      5-min Rain = 0
KSB1 201930Z 22002KT 34/10 A3006 RMK A01 T03430096  RH  022%=      5-min Rain = 0
KSB1 201931Z 23001KT 34/10 A3006 RMK A01 T03420098  RH  022%=      5-min Rain = 0
KSB1 201932Z 28004KT 35/10 A3006 RMK A01 T03460100  RH  022%=      5-min Rain = 0
KSB1 201933Z 29004KT 35/10 A3006 RMK A01 T03520099  RH  021%=      5-min Rain = 0
KSB1 201934Z 27005KT 35/10 A3006 RMK A01 T03500100  RH  022%=      5-min Rain = 0
KSB1 201935Z 27007KT 35/10 A3005 RMK A01 T03460098  RH  022%=      5-min Rain = 0
KSB1 201936Z 29006KT 35/10 A3005 RMK A01 T03470099  RH  022%=      5-min Rain = 0
KSB1 201937Z 28006KT 35/10 A3005 RMK A01 T03490100  RH  022%=      5-min Rain = 0
KSB1 201938Z 23008KT 35/10 A3005 RMK A01 T03500101  RH  022%=      5-min Rain = 0
KSB1 201939Z 23008KT 35/10 A3005 RMK A01 T03490100  RH  022%=      5-min Rain = 0
KSB1 201940Z 28006KT 35/10 A3005 RMK A01 T03490100  RH  022%=      5-min Rain = 0
KSB1 201941Z 28008KT 35/10 A3005 RMK A01 T03500099  RH  022%=      5-min Rain = 0
KSB1 201942Z 29007KT 35/10 A3005 RMK A01 T03480095  RH  021%=      5-min Rain = 0
KSB1 201943Z 28008KT 35/10 A3005 RMK A01 T03460095  RH  022%=      5-min Rain = 0
KSB1 201944Z 27007KT 35/09 A3005 RMK A01 T03490092  RH  021%=      5-min Rain = 0
KSB1 201945Z 29006KT 35/09 A3005 RMK A01 T03500089  RH  020%=      5-min Rain = 0
KSB1 201946Z 29005KT 35/09 A3005 RMK A01 T03500089  RH  020%=      5-min Rain = 0
KSB1 201947Z 24008KT 35/09 A3005 RMK A01 T03490089  RH  020%=      5-min Rain = 0
KSB1 201948Z 23007KT 35/08 A3005 RMK A01 T03510084  RH  020%=      5-min Rain = 0
KSB1 201949Z 23009KT 35/08 A3005 RMK A01 T03540083  RH  019%=      5-min Rain = 0
KSB1 201950Z 21008KT 36/09 A3005 RMK A01 T03590088  RH  019%=      5-min Rain = 0
KSB1 201951Z 22011KT 36/09 A3005 RMK A01 T03570087  RH  019%=      5-min Rain = 0
KSB1 201952Z 22010KT 36/08 A3005 RMK A01 T03580080  RH  018%=      5-min Rain = 0
KSB1 201953Z 22009KT 36/08 A3005 RMK A01 T03560078  RH  018%=      5-min Rain = 0
KSB1 201954Z 21009KT 35/08 A3005 RMK A01 T03540079  RH  018%=      5-min Rain = 0
KSB1 201955Z 21006KT 35/08 A3005 RMK A01 T03530079  RH  019%=      5-min Rain = 0
KSB1 201956Z 20011G16KT 36/08 A3005 RMK A01 T03550081  RH  019%=      5-min Rain = 0
KSB1 201957Z 20013KT 36/08 A3005 RMK A01 T03600080  RH  018%=      5-min Rain = 0
KSB1 201958Z 20008KT 36/08 A3005 RMK A01 T03560078  RH  018%=      5-min Rain = 0
KSB1 201959Z 20012KT 35/08 A3005 RMK A01 T03540080  RH  019%=      5-min Rain = 0
KSB1 202000Z 21010KT 35/08 A3005 RMK A01 T03540077  RH  018%=      5-min Rain = 0
KSB1 202001Z 19008KT 36/08 A3005 RMK A01 T03570078  RH  018%=      5-min Rain = 0
KSB1 202002Z 20013KT 36/08 A3005 RMK A01 T03590078  RH  018%=      5-min Rain = 0
KSB1 202003Z 21011KT 36/08 A3005 RMK A01 T03600078  RH  018%=      5-min Rain = 0
KSB1 202004Z 21011KT 36/07 A3005 RMK A01 T03610074  RH  017%=      5-min Rain = 0
KSB1 202005Z 20012KT 36/08 A3005 RMK A01 T03590075  RH  018%=      5-min Rain = 0
KSB1 202006Z 22011KT 36/08 A3005 RMK A01 T03580076  RH  018%=      5-min Rain = 0
KSB1 202007Z 22010KT 36/08 A3005 RMK A01 T03590078  RH  018%=      5-min Rain = 0
KSB1 202008Z 23007KT 36/08 A3005 RMK A01 T03610077  RH  018%=      5-min Rain = 0
KSB1 202009Z 24006KT 36/07 A3005 RMK A01 T03580074  RH  018%=      5-min Rain = 0
KSB1 202010Z 25007KT 36/07 A3005 RMK A01 T03550072  RH  018%=      5-min Rain = 0
KSB1 202011Z 22004KT 36/07 A3005 RMK A01 T03550072  RH  018%=      5-min Rain = 0
KSB1 202012Z 17006G11KT 36/07 A3005 RMK A01 T03580074  RH  018%=      5-min Rain = 0
KSB1 202013Z 21004KT 36/07 A3005 RMK A01 T03560068  RH  017%=      5-min Rain = 0
KSB1 202014Z 18007G13KT 35/07 A3005 RMK A01 T03540073  RH  018%=      5-min Rain = 0
KSB1 202015Z 18008KT 36/08 A3005 RMK A01 T03580075  RH  018%=      5-min Rain = 0
KSB1 202016Z 17005KT 36/08 A3005 RMK A01 T03560075  RH  018%=      5-min Rain = 0
KSB1 202017Z 14003KT 35/08 A3005 RMK A01 T03540075  RH  018%=      5-min Rain = 0
KSB1 202018Z 12006KT 36/08 A3004 RMK A01 T03550077  RH  018%=      5-min Rain = 0
KSB1 202019Z 11006KT 36/08 A3004 RMK A01 T03570075  RH  018%=      5-min Rain = 0
KSB1 202020Z 13005KT 36/07 A3004 RMK A01 T03550073  RH  018%=      5-min Rain = 0
KSB1 202021Z 14003KT 35/07 A3004 RMK A01 T03530074  RH  018%=      5-min Rain = 0
KSB1 202022Z 18004KT 36/08 A3004 RMK A01 T03550076  RH  018%=      5-min Rain = 0
KSB1 202023Z 15005KT 36/08 A3004 RMK A01 T03570075  RH  018%=      5-min Rain = 0
KSB1 202024Z 16002KT 36/07 A3004 RMK A01 T03570074  RH  018%=      5-min Rain = 0
KSB1 202025Z 24004KT 36/07 A3004 RMK A01 T03570074  RH  018%=      5-min Rain = 0
KSB1 202026Z 17005KT 36/08 A3004 RMK A01 T03560077  RH  018%=      5-min Rain = 0
KSB1 202027Z 13005KT 36/08 A3004 RMK A01 T03570076  RH  018%=      5-min Rain = 0
KSB1 202028Z 12005KT 36/08 A3004 RMK A01 T03580077  RH  018%=      5-min Rain = 0
KSB1 202029Z 10004KT 36/08 A3004 RMK A01 T03580075  RH  018%=      5-min Rain = 0
KSB1 202030Z 13003KT 36/07 A3004 RMK A01 T03580072  RH  017%=      5-min Rain = 0
KSB1 202031Z 13004KT 36/07 A3004 RMK A01 T03590071  RH  017%=      5-min Rain = 0
KSB1 202032Z 14003KT 36/07 A3004 RMK A01 T03620071  RH  017%=      5-min Rain = 0
KSB1 202033Z 14003KT 36/07 A3004 RMK A01 T03610071  RH  017%=      5-min Rain = 0
KSB1 202034Z 12005KT 36/07 A3004 RMK A01 T03600071  RH  017%=      5-min Rain = 0
KSB1 202035Z 10004KT 36/07 A3004 RMK A01 T03620071  RH  017%=      5-min Rain = 0
KSB1 202036Z 11004KT 36/07 A3004 RMK A01 T03610070  RH  017%=      5-min Rain = 0
KSB1 202037Z 13005KT 36/07 A3004 RMK A01 T03610069  RH  017%=      5-min Rain = 0
KSB1 202038Z 11004KT 36/07 A3004 RMK A01 T03630071  RH  017%=      5-min Rain = 0
KSB1 202039Z 16004KT 37/07 A3004 RMK A01 T03660071  RH  016%=      5-min Rain = 0
KSB1 202040Z 21005KT 37/07 A3004 RMK A01 T03650069  RH  016%=      5-min Rain = 0
KSB1 202041Z 23004KT 36/07 A3004 RMK A01 T03640067  RH  016%=      5-min Rain = 0
KSB1 202042Z 21002KT 36/07 A3004 RMK A01 T03630065  RH  016%=      5-min Rain = 0
KSB1 202043Z 17005KT 36/07 A3004 RMK A01 T03610065  RH  016%=      5-min Rain = 0
KSB1 202044Z 18005KT 36/07 A3004 RMK A01 T03620069  RH  016%=      5-min Rain = 0
KSB1 202045Z 19009KT 37/07 A3004 RMK A01 T03670071  RH  016%=      5-min Rain = 0
KSB1 202046Z 19009KT 37/07 A3003 RMK A01 T03680067  RH  016%=      5-min Rain = 0
KSB1 202047Z 20013KT 37/07 A3003 RMK A01 T03680073  RH  016%=      5-min Rain = 0
KSB1 202048Z 22011KT 37/07 A3003 RMK A01 T03660073  RH  017%=      5-min Rain = 0
KSB1 202049Z 22008KT 36/07 A3003 RMK A01 T03620070  RH  017%=      5-min Rain = 0
KSB1 202050Z 23007KT 36/07 A3003 RMK A01 T03620074  RH  017%=      5-min Rain = 0
KSB1 202051Z 19004KT 37/07 A3003 RMK A01 T03660072  RH  017%=      5-min Rain = 0
KSB1 202052Z 16005KT 37/07 A3003 RMK A01 T03660070  RH  016%=      5-min Rain = 0
KSB1 202053Z 22006KT 37/07 A3003 RMK A01 T03680071  RH  016%=      5-min Rain = 0
KSB1 202054Z 24012KT 37/08 A3003 RMK A01 T03700076  RH  017%=      5-min Rain = 0
KSB1 202055Z 24009KT 37/08 A3003 RMK A01 T03680076  RH  017%=      5-min Rain = 0
KSB1 202056Z 25009KT 37/08 A3003 RMK A01 T03650075  RH  017%=      5-min Rain = 0
KSB1 202057Z 24004KT 36/07 A3003 RMK A01 T03620071  RH  017%=      5-min Rain = 0
KSB1 202058Z 11003KT 36/07 A3003 RMK A01 T03600067  RH  016%=      5-min Rain = 0
KSB1 202059Z 08003KT 36/07 A3003 RMK A01 T03590069  RH  017%=      5-min Rain = 0
KSB1 202100Z 01002KT 36/07 A3003 RMK A01 T03610072  RH  017%=      5-min Rain = 0
KSB1 202101Z 35001KT 36/07 A3003 RMK A01 T03640073  RH  017%=      5-min Rain = 0
KSB1 202102Z 31005KT 37/07 A3003 RMK A01 T03660074  RH  017%=      5-min Rain = 0
KSB1 202103Z 26005KT 37/08 A3003 RMK A01 T03720075  RH  016%=      5-min Rain = 0
KSB1 202104Z 30005KT 37/07 A3003 RMK A01 T03740073  RH  016%=      5-min Rain = 0
KSB1 202105Z 29005KT 37/07 A3003 RMK A01 T03700071  RH  016%=      5-min Rain = 0
KSB1 202106Z 24005KT 37/07 A3003 RMK A01 T03680070  RH  016%=      5-min Rain = 0
KSB1 202107Z 20008KT 37/07 A3003 RMK A01 T03680065  RH  016%=      5-min Rain = 0
KSB1 202108Z 20008KT 37/06 A3003 RMK A01 T03660063  RH  016%=      5-min Rain = 0
KSB1 202109Z 22008KT 37/06 A3003 RMK A01 T03660060  RH  015%=      5-min Rain = 0
KSB1 202110Z 21006KT 36/06 A3003 RMK A01 T03640058  RH  015%=      5-min Rain = 0
KSB1 202111Z 19004KT 36/06 A3003 RMK A01 T03600057  RH  015%=      5-min Rain = 0
KSB1 202112Z 16002KT 36/06 A3002 RMK A01 T03580058  RH  016%=      5-min Rain = 0
KSB1 202113Z 19005KT 36/06 A3002 RMK A01 T03600060  RH  016%=      5-min Rain = 0
KSB1 202114Z 19006G11KT 37/06 A3002 RMK A01 T03650063  RH  016%=      5-min Rain = 0
KSB1 202115Z 21008KT 37/06 A3002 RMK A01 T03670060  RH  015%=      5-min Rain = 0
KSB1 202116Z 24007KT 37/06 A3002 RMK A01 T03720062  RH  015%=      5-min Rain = 0
KSB1 202117Z 23007KT 37/06 A3002 RMK A01 T03720059  RH  015%=      5-min Rain = 0
KSB1 202118Z 21007KT 37/06 A3002 RMK A01 T03700056  RH  015%=      5-min Rain = 0
KSB1 202119Z 17006KT 37/06 A3002 RMK A01 T03690058  RH  015%=      5-min Rain = 0
KSB1 202120Z 24005KT 37/06 A3002 RMK A01 T03690059  RH  015%=      5-min Rain = 0
KSB1 202121Z 24005KT 37/06 A3002 RMK A01 T03720061  RH  015%=      5-min Rain = 0
KSB1 202122Z 23007KT 37/06 A3002 RMK A01 T03690060  RH  015%=      5-min Rain = 0
KSB1 202123Z 17006KT 37/06 A3002 RMK A01 T03670059  RH  015%=      5-min Rain = 0
KSB1 202124Z 16005KT 37/05 A3002 RMK A01 T03690054  RH  014%=      5-min Rain = 0
KSB1 202125Z 16004KT 37/05 A3002 RMK A01 T03710052  RH  014%=      5-min Rain = 0
KSB1 202126Z 17003KT 37/05 A3002 RMK A01 T03730053  RH  014%=      5-min Rain = 0
KSB1 202127Z 14003KT 37/05 A3002 RMK A01 T03740051  RH  014%=      5-min Rain = 0
KSB1 202128Z 13002KT 37/05 A3002 RMK A01 T03740050  RH  014%=      5-min Rain = 0
KSB1 202129Z 13003KT 37/05 A3002 RMK A01 T03730051  RH  014%=      5-min Rain = 0
KSB1 202130Z 21006KT 37/06 A3002 RMK A01 T03710055  RH  014%=      5-min Rain = 0
KSB1 202131Z 21008KT 37/06 A3002 RMK A01 T03720063  RH  015%=      5-min Rain = 0
KSB1 202132Z 21009KT 37/06 A3002 RMK A01 T03700063  RH  015%=      5-min Rain = 0
KSB1 202133Z 21008KT 37/06 A3002 RMK A01 T03680064  RH  016%=      5-min Rain = 0
KSB1 202134Z 20006KT 37/06 A3002 RMK A01 T03680061  RH  015%=      5-min Rain = 0
KSB1 202135Z 20006KT 36/06 A3002 RMK A01 T03630057  RH  015%=      5-min Rain = 0
KSB1 202136Z 18004KT 36/06 A3002 RMK A01 T03640060  RH  015%=      5-min Rain = 0
KSB1 202137Z 14002KT 36/06 A3002 RMK A01 T03610059  RH  016%=      5-min Rain = 0
KSB1 202138Z 14002KT 36/06 A3002 RMK A01 T03620061  RH  016%=      5-min Rain = 0
KSB1 202139Z 03002KT 36/06 A3002 RMK A01 T03630062  RH  016%=      5-min Rain = 0
KSB1 202140Z 02002KT 37/06 A3002 RMK A01 T03650063  RH  016%=      5-min Rain = 0
KSB1 202141Z 01003KT 37/06 A3002 RMK A01 T03660061  RH  015%=      5-min Rain = 0
KSB1 202142Z 34004KT 37/06 A3001 RMK A01 T03660061  RH  015%=      5-min Rain = 0
KSB1 202143Z 02003KT 36/06 A3001 RMK A01 T03640063  RH  016%=      5-min Rain = 0
KSB1 202144Z 14005KT 37/07 A3001 RMK A01 T03660067  RH  016%=      5-min Rain = 0
KSB1 202145Z 12003KT 37/07 A3001 RMK A01 T03700065  RH  015%=      5-min Rain = 0
KSB1 202146Z 13003KT 37/07 A3001 RMK A01 T03700065  RH  015%=      5-min Rain = 0
KSB1 202147Z 09003KT 37/06 A3001 RMK A01 T03700064  RH  015%=      5-min Rain = 0
KSB1 202148Z 09003KT 37/06 A3001 RMK A01 T03700064  RH  015%=      5-min Rain = 0
KSB1 202149Z 09005G14KT 37/07 A3001 RMK A01 T03690067  RH  016%=      5-min Rain = 0
KSB1 202150Z 26009KT 37/07 A30 RMK A01 T03710069  RH  016%=      5-min Rain = 0
KSB1 202151Z 22011KT 37/08 A3001 RMK A01 T03740077  RH  016%=      5-min Rain = 0
KSB1 202152Z 24008KT 37/08 A3001 RMK A01 T03710077  RH  017%=      5-min Rain = 0
KSB1 202153Z 24007KT 37/08 A3001 RMK A01 T03670076  RH  017%=      5-min Rain = 0
KSB1 202154Z 22009KT 37/08 A3001 RMK A01 T03670077  RH  017%=      5-min Rain = 0
KSB1 202155Z 21010G15KT 37/08 A30 RMK A01 T03670079  RH  017%=      5-min Rain = 0
KSB1 202156Z 23010KT 37/08 A30 RMK A01 T03710080  RH  017%=      5-min Rain = 0
KSB1 202157Z 21010KT 37/08 A3001 RMK A01 T03720078  RH  017%=      5-min Rain = 0
KSB1 202158Z 21009KT 37/07 A3001 RMK A01 T03700073  RH  016%=      5-min Rain = 0
KSB1 202159Z 22006KT 37/07 A30 RMK A01 T03670071  RH  016%=      5-min Rain = 0
KSB1 202200Z 21009KT 37/08 A30 RMK A01 T03660075  RH  017%=      5-min Rain = 0
KSB1 202201Z 20012KT 37/08 A30 RMK A01 T03700080  RH  017%=      5-min Rain = 0
KSB1 202202Z 20014KT 37/08 A30 RMK A01 T03700079  RH  017%=      5-min Rain = 0
KSB1 202203Z 20012KT 37/08 A30 RMK A01 T03680079  RH  017%=      5-min Rain = 0
KSB1 202204Z 21010KT 37/08 A30 RMK A01 T03660077  RH  017%=      5-min Rain = 0
KSB1 202205Z 23008G13KT 37/08 A30 RMK A01 T03670076  RH  017%=      5-min Rain = 0
KSB1 202206Z 25004KT 36/07 A30 RMK A01 T03640074  RH  017%=      5-min Rain = 0
KSB1 202207Z 22005KT 36/08 A30 RMK A01 T03610076  RH  017%=      5-min Rain = 0
KSB1 202208Z 20013G18KT 36/09 A30 RMK A01 T03630089  RH  019%=      5-min Rain = 0
KSB1 202209Z 21017KT 37/10 A30 RMK A01 T03670099  RH  020%=      5-min Rain = 0
KSB1 202210Z 21015KT 36/10 A30 RMK A01 T03630098  RH  020%=      5-min Rain = 0
KSB1 202211Z 21018KT 36/10 A2999 RMK A01 T03590097  RH  020%=      5-min Rain = 0
KSB1 202212Z 20016KT 36/10 A30 RMK A01 T03560097  RH  021%=      5-min Rain = 0
KSB1 202213Z 20017KT 36/10 A30 RMK A01 T03560102  RH  021%=      5-min Rain = 0
KSB1 202214Z 20017KT 36/10 A30 RMK A01 T03560101  RH  021%=      5-min Rain = 0
KSB1 202215Z 21015KT 35/10 A30 RMK A01 T03540101  RH  022%=      5-min Rain = 0
KSB1 202216Z 22018KT 35/10 A30 RMK A01 T03530098  RH  021%=      5-min Rain = 0
KSB1 202217Z 22013KT 35/10 A30 RMK A01 T03520097  RH  021%=      5-min Rain = 0
KSB1 202218Z 22016KT 35/10 A30 RMK A01 T03500099  RH  022%=      5-min Rain = 0
KSB1 202219Z 22015G20KT 35/10 A30 RMK A01 T03480102  RH  022%=      5-min Rain = 0
KSB1 202220Z 22017KT 35/10 A30 RMK A01 T03460102  RH  023%=      5-min Rain = 0
KSB1 202221Z 21012KT 34/10 A30 RMK A01 T03440101  RH  023%=      5-min Rain = 0
KSB1 202222Z 21009KT 34/10 A30 RMK A01 T03420100  RH  023%=      5-min Rain = 0
KSB1 202223Z 20012KT 34/10 A30 RMK A01 T03420100  RH  023%=      5-min Rain = 0
KSB1 202224Z 21012KT 35/10 A30 RMK A01 T03460102  RH  023%=      5-min Rain = 0
KSB1 202225Z 22010KT 35/10 A30 RMK A01 T03470100  RH  022%=      5-min Rain = 0
KSB1 202226Z 23016KT 35/10 A30 RMK A01 T03510100  RH  022%=      5-min Rain = 0
KSB1 202227Z 24018KT 35/10 A30 RMK A01 T03520097  RH  021%=      5-min Rain = 0
KSB1 202228Z 24017KT 35/10 A30 RMK A01 T03540096  RH  021%=      5-min Rain = 0
KSB1 202229Z 25018KT 36/10 A30 RMK A01 T03560096  RH  021%=      5-min Rain = 0
KSB1 202230Z 23015KT 36/10 A30 RMK A01 T03590096  RH  020%=      5-min Rain = 0
KSB1 202231Z 24015KT 36/10 A30 RMK A01 T03600096  RH  020%=      5-min Rain = 0
KSB1 202232Z 24014KT 36/10 A30 RMK A01 T03590096  RH  020%=      5-min Rain = 0
KSB1 202233Z 24014KT 36/09 A30 RMK A01 T03560094  RH  020%=      5-min Rain = 0
KSB1 202234Z 22011KT 36/10 A30 RMK A01 T03550095  RH  020%=      5-min Rain = 0
KSB1 202235Z 23010KT 36/10 A30 RMK A01 T03550095  RH  020%=      5-min Rain = 0
KSB1 202236Z 23013KT 36/09 A30 RMK A01 T03550094  RH  020%=      5-min Rain = 0
KSB1 202237Z 22010KT 36/09 A30 RMK A01 T03550093  RH  020%=      5-min Rain = 0
KSB1 202238Z 23010KT 36/09 A30 RMK A01 T03560094  RH  020%=      5-min Rain = 0
KSB1 202239Z 22011KT 36/09 A2999 RMK A01 T03590094  RH  020%=      5-min Rain = 0
KSB1 202240Z 22008KT 36/09 A2999 RMK A01 T03570094  RH  020%=      5-min Rain = 0
KSB1 202241Z 26010KT 36/09 A2999 RMK A01 T03570094  RH  020%=      5-min Rain = 0
KSB1 202242Z 25009KT 36/09 A2999 RMK A01 T03590094  RH  020%=      5-min Rain = 0
KSB1 202243Z 23012KT 36/09 A2999 RMK A01 T03590093  RH  020%=      5-min Rain = 0
KSB1 202244Z 22011KT 36/09 A2999 RMK A01 T03580094  RH  020%=      5-min Rain = 0
KSB1 202245Z 23012KT 36/09 A2999 RMK A01 T03600094  RH  020%=      5-min Rain = 0
KSB1 202246Z 23012KT 36/09 A2999 RMK A01 T03580092  RH  020%=      5-min Rain = 0
KSB1 202247Z 23010KT 36/09 A2999 RMK A01 T03560092  RH  020%=      5-min Rain = 0
KSB1 202248Z 23011KT 36/09 A2999 RMK A01 T03560092  RH  020%=      5-min Rain = 0
KSB1 202249Z 25012KT 36/09 A2999 RMK A01 T03580092  RH  020%=      5-min Rain = 0
KSB1 202250Z 25006KT 36/09 A2999 RMK A01 T03580092  RH  020%=      5-min Rain = 0
KSB1 202251Z 22004G9KT 36/09 A2999 RMK A01 T03580092  RH  020%=      5-min Rain = 0
KSB1 202252Z 20008KT 36/10 A2999 RMK A01 T03620095  RH  020%=      5-min Rain = 0
KSB1 202253Z 26011KT 36/09 A2999 RMK A01 T03630093  RH  019%=      5-min Rain = 0
KSB1 202254Z 25008KT 37/09 A2999 RMK A01 T03650093  RH  019%=      5-min Rain = 0
KSB1 202255Z 27010G15KT 37/09 A2999 RMK A01 T03660093  RH  019%=      5-min Rain = 0
KSB1 202256Z 27012KT 37/09 A2999 RMK A01 T03660092  RH  019%=      5-min Rain = 0
KSB1 202257Z 26012KT 37/09 A2999 RMK A01 T03650092  RH  019%=      5-min Rain = 0
KSB1 202258Z 27010KT 36/09 A2999 RMK A01 T03630091  RH  019%=      5-min Rain = 0
KSB1 202259Z 24008KT 36/09 A2999 RMK A01 T03600091  RH  019%=      5-min Rain = 0
KSB1 202300Z 25007KT 36/09 A2999 RMK A01 T03590091  RH  020%=      5-min Rain = 0
KSB1 202301Z 24008KT 36/09 A2999 RMK A01 T03610092  RH  020%=      5-min Rain = 0
KSB1 202302Z 24010KT 36/09 A2999 RMK A01 T03640093  RH  019%=      5-min Rain = 0
KSB1 202303Z 26011KT 37/09 A2999 RMK A01 T03670092  RH  019%=      5-min Rain = 0
KSB1 202304Z 25011KT 37/09 A2999 RMK A01 T03660091  RH  019%=      5-min Rain = 0
KSB1 202305Z 27009KT 37/09 A2999 RMK A01 T03650090  RH  019%=      5-min Rain = 0
KSB1 202306Z 26008KT 36/09 A2999 RMK A01 T03620090  RH  019%=      5-min Rain = 0
KSB1 202307Z 26011KT 36/09 A2999 RMK A01 T03630090  RH  019%=      5-min Rain = 0
KSB1 202308Z 26008KT 36/09 A2999 RMK A01 T03640090  RH  019%=      5-min Rain = 0
KSB1 202309Z 26008KT 37/09 A2998 RMK A01 T03660091  RH  019%=      5-min Rain = 0
KSB1 202310Z 25010KT 37/09 A2998 RMK A01 T03670091  RH  019%=      5-min Rain = 0
KSB1 202311Z 26007KT 36/09 A2999 RMK A01 T03640090  RH  019%=      5-min Rain = 0
KSB1 202312Z 25005KT 36/09 A2999 RMK A01 T03620090  RH  019%=      5-min Rain = 0
KSB1 202313Z 26008KT 36/09 A2999 RMK A01 T03630091  RH  019%=      5-min Rain = 0
KSB1 202314Z 26005KT 37/09 A2999 RMK A01 T03650090  RH  019%=      5-min Rain = 0
KSB1 202315Z 24005KT 36/09 A2999 RMK A01 T03640090  RH  019%=      5-min Rain = 0
KSB1 202316Z 24004KT 36/09 A2998 RMK A01 T03620090  RH  019%=      5-min Rain = 0
KSB1 202317Z 20005KT 37/09 A2998 RMK A01 T03660091  RH  019%=      5-min Rain = 0
KSB1 202318Z 19008KT 37/09 A2998 RMK A01 T03660091  RH  019%=      5-min Rain = 0
KSB1 202319Z 22009KT 37/09 A2998 RMK A01 T03650091  RH  019%=      5-min Rain = 0
KSB1 202320Z 23009KT 37/09 A2998 RMK A01 T03670092  RH  019%=      5-min Rain = 0
KSB1 202321Z 22008KT 37/09 A2998 RMK A01 T03660090  RH  019%=      5-min Rain = 0
KSB1 202322Z 21008KT 36/09 A2998 RMK A01 T03640091  RH  019%=      5-min Rain = 0
KSB1 202323Z 20008KT 36/09 A2998 RMK A01 T03610090  RH  019%=      5-min Rain = 0
KSB1 202324Z 20007KT 36/09 A2998 RMK A01 T03630092  RH  019%=      5-min Rain = 0
KSB1 202325Z 21009KT 36/09 A2998 RMK A01 T03640090  RH  019%=      5-min Rain = 0
KSB1 202326Z 21009KT 36/09 A2998 RMK A01 T03640091  RH  019%=      5-min Rain = 0
KSB1 202327Z 19010KT 37/09 A2998 RMK A01 T03650091  RH  019%=      5-min Rain = 0
KSB1 202328Z 18010KT 36/09 A2998 RMK A01 T03640090  RH  019%=      5-min Rain = 0
KSB1 202329Z 20009KT 36/09 A2998 RMK A01 T03620090  RH  019%=      5-min Rain = 0
KSB1 202330Z 20009KT 36/09 A2998 RMK A01 T03610089  RH  019%=      5-min Rain = 0
KSB1 202331Z 21010KT 36/09 A2998 RMK A01 T03600089  RH  019%=      5-min Rain = 0
KSB1 202332Z 21010KT 36/09 A2998 RMK A01 T03600089  RH  019%=      5-min Rain = 0
KSB1 202333Z 21010KT 36/09 A2998 RMK A01 T03610090  RH  019%=      5-min Rain = 0
KSB1 202334Z 20009KT 36/09 A2998 RMK A01 T03620089  RH  019%=      5-min Rain = 0
KSB1 202335Z 19006KT 36/09 A2998 RMK A01 T03600088  RH  019%=      5-min Rain = 0
KSB1 202336Z 21008KT 36/09 A2998 RMK A01 T03610089  RH  019%=      5-min Rain = 0
KSB1 202337Z 21010KT 36/09 A2998 RMK A01 T03620088  RH  019%=      5-min Rain = 0
KSB1 202338Z 23008KT 36/09 A2998 RMK A01 T03630086  RH  019%=      5-min Rain = 0
KSB1 202339Z 24009KT 36/09 A2998 RMK A01 T03630085  RH  018%=      5-min Rain = 0
KSB1 202340Z 25008KT 36/09 A2998 RMK A01 T03630085  RH  018%=      5-min Rain = 0
KSB1 202341Z 25007KT 36/08 A2998 RMK A01 T03620084  RH  018%=      5-min Rain = 0
KSB1 202342Z 25007KT 36/08 A2998 RMK A01 T03610083  RH  018%=      5-min Rain = 0
KSB1 202343Z 24007KT 36/08 A2998 RMK A01 T03610081  RH  018%=      5-min Rain = 0
KSB1 202344Z 26008KT 36/08 A2998 RMK A01 T03610081  RH  018%=      5-min Rain = 0
KSB1 202345Z 28006KT 36/08 A2998 RMK A01 T03610081  RH  018%=      5-min Rain = 0
KSB1 202346Z 27003KT 36/08 A2998 RMK A01 T03590083  RH  018%=      5-min Rain = 0
KSB1 202347Z 23003KT 36/08 A2998 RMK A01 T03580082  RH  018%=      5-min Rain = 0
KSB1 202348Z 22002KT 36/08 A2998 RMK A01 T03590083  RH  018%=      5-min Rain = 0
KSB1 202349Z 34001KT 36/08 A2998 RMK A01 T03600083  RH  018%=      5-min Rain = 0
KSB1 202350Z 23002KT 36/08 A2998 RMK A01 T03620084  RH  018%=      5-min Rain = 0
KSB1 202351Z 21005KT 37/09 A2998 RMK A01 T03660086  RH  018%=      5-min Rain = 0
KSB1 202352Z 19005KT 37/08 A2998 RMK A01 T03650082  RH  018%=      5-min Rain = 0
KSB1 202353Z 19008KT 36/08 A2998 RMK A01 T03640081  RH  018%=      5-min Rain = 0
KSB1 202354Z 19007KT 36/08 A2998 RMK A01 T03640080  RH  018%=      5-min Rain = 0
KSB1 202355Z 22005KT 36/08 A2998 RMK A01 T03630080  RH  018%=      5-min Rain = 0
KSB1 202356Z 23007KT 36/08 A2997 RMK A01 T03640081  RH  018%=      5-min Rain = 0
KSB1 202357Z 22009KT 36/08 A2997 RMK A01 T03640077  RH  017%=      5-min Rain = 0
KSB1 202358Z 21008KT 36/08 A2998 RMK A01 T03630077  RH  017%=      5-min Rain = 0
KSB1 202359Z 21004KT 36/08 A2998 RMK A01 T03630076  RH  017%=      5-min Rain = 0
KSB1 210000Z 22005KT 36/08 A2998 RMK A01 T03630075  RH  017%=      5-min Rain = 0
KSB1 210001Z 22007KT 36/07 A2997 RMK A01 T03620074  RH  017%=      5-min Rain = 0
KSB1 210002Z 23008KT 36/08 A2998 RMK A01 T03630076  RH  017%=      5-min Rain = 0
KSB1 210003Z 22008KT 36/08 A2998 RMK A01 T03630075  RH  017%=      5-min Rain = 0
KSB1 210004Z 21008KT 36/08 A2998 RMK A01 T03630076  RH  017%=      5-min Rain = 0
KSB1 210005Z 21009KT 36/07 A2998 RMK A01 T03630074  RH  017%=      5-min Rain = 0
KSB1 210006Z 22008KT 36/07 A2998 RMK A01 T03610070  RH  017%=      5-min Rain = 0
KSB1 210007Z 21005KT 36/07 A2998 RMK A01 T03600070  RH  017%=      5-min Rain = 0
KSB1 210008Z 21007KT 36/07 A2998 RMK A01 T03580071  RH  017%=      5-min Rain = 0
KSB1 210009Z 20008KT 36/07 A2998 RMK A01 T03600072  RH  017%=      5-min Rain = 0
KSB1 210010Z 18007KT 36/07 A2998 RMK A01 T03620070  RH  017%=      5-min Rain = 0
KSB1 210011Z 18006KT 36/07 A2998 RMK A01 T03620073  RH  017%=      5-min Rain = 0
KSB1 210012Z 16005KT 36/07 A2998 RMK A01 T03610073  RH  017%=      5-min Rain = 0
KSB1 210013Z 18004KT 36/07 A2998 RMK A01 T03620072  RH  017%=      5-min Rain = 0
KSB1 210014Z 24006KT 36/07 A2998 RMK A01 T03630073  RH  017%=      5-min Rain = 0
KSB1 210015Z 24007KT 36/07 A2998 RMK A01 T03630073  RH  017%=      5-min Rain = 0
KSB1 210016Z 25006KT 36/07 A2998 RMK A01 T03630073  RH  017%=      5-min Rain = 0
KSB1 210017Z 25005KT 37/07 A2998 RMK A01 T03650074  RH  017%=      5-min Rain = 0
KSB1 210018Z 24005KT 37/07 A2998 RMK A01 T03650071  RH  016%=      5-min Rain = 0
KSB1 210019Z 24006KT 36/07 A2998 RMK A01 T03640067  RH  016%=      5-min Rain = 0
KSB1 210020Z 23007KT 36/07 A2998 RMK A01 T03620067  RH  016%=      5-min Rain = 0
KSB1 210021Z 22005KT 36/07 A2998 RMK A01 T03630066  RH  016%=      5-min Rain = 0
KSB1 210022Z 21004KT 36/07 A2998 RMK A01 T03610067  RH  016%=      5-min Rain = 0
KSB1 210023Z 22003KT 36/07 A2997 RMK A01 T03600067  RH  016%=      5-min Rain = 0
KSB1 210024Z 20005KT 36/07 A2997 RMK A01 T03620069  RH  017%=      5-min Rain = 0
KSB1 210025Z 21005KT 36/07 A2997 RMK A01 T03620070  RH  017%=      5-min Rain = 0
KSB1 210026Z 20004KT 36/07 A2997 RMK A01 T03610067  RH  016%=      5-min Rain = 0
KSB1 210027Z 19006KT 36/06 A2998 RMK A01 T03620063  RH  016%=      5-min Rain = 0
KSB1 210028Z 20005KT 36/06 A2997 RMK A01 T03630064  RH  016%=      5-min Rain = 0
KSB1 210029Z 21007KT 36/07 A2997 RMK A01 T03640066  RH  016%=      5-min Rain = 0
KSB1 210030Z 19008KT 36/06 A2998 RMK A01 T03630063  RH  016%=      5-min Rain = 0
KSB1 210031Z 19007KT 36/06 A2998 RMK A01 T03620061  RH  016%=      5-min Rain = 0
KSB1 210032Z 20006KT 36/06 A2998 RMK A01 T03600063  RH  016%=      5-min Rain = 0
KSB1 210033Z 19006KT 36/06 A2998 RMK A01 T03610064  RH  016%=      5-min Rain = 0
KSB1 210034Z 19005KT 36/07 A2998 RMK A01 T03620065  RH  016%=      5-min Rain = 0
KSB1 210035Z 22003KT 36/06 A2998 RMK A01 T03610063  RH  016%=      5-min Rain = 0
KSB1 210036Z 24005KT 36/06 A2998 RMK A01 T03620061  RH  016%=      5-min Rain = 0
KSB1 210037Z 22003KT 36/06 A2998 RMK A01 T03620061  RH  016%=      5-min Rain = 0
KSB1 210038Z 15001KT 36/06 A2998 RMK A01 T03620061  RH  016%=      5-min Rain = 0
KSB1 210039Z 17003KT 36/06 A2998 RMK A01 T03630062  RH  016%=      5-min Rain = 0
KSB1 210040Z 16005KT 37/06 A2998 RMK A01 T03650064  RH  016%=      5-min Rain = 0
KSB1 210041Z 16005KT 37/07 A2998 RMK A01 T03650067  RH  016%=      5-min Rain = 0
KSB1 210042Z 17004KT 37/06 A2997 RMK A01 T03650064  RH  016%=      5-min Rain = 0
KSB1 210043Z 23004KT 36/06 A2997 RMK A01 T03630062  RH  016%=      5-min Rain = 0
KSB1 210044Z 23005KT 36/06 A2997 RMK A01 T03630062  RH  016%=      5-min Rain = 0
KSB1 210045Z 21006KT 36/06 A2997 RMK A01 T03640062  RH  016%=      5-min Rain = 0
KSB1 210046Z 21005KT 36/06 A2997 RMK A01 T03630063  RH  016%=      5-min Rain = 0
KSB1 210047Z 21006KT 36/06 A2997 RMK A01 T03630061  RH  016%=      5-min Rain = 0
KSB1 210048Z 23007KT 36/06 A2997 RMK A01 T03620060  RH  016%=      5-min Rain = 0
KSB1 210049Z 24007KT 36/06 A2997 RMK A01 T03610060  RH  016%=      5-min Rain = 0
KSB1 210050Z 24007KT 36/06 A2997 RMK A01 T03610060  RH  016%=      5-min Rain = 0
KSB1 210051Z 23007KT 36/06 A2998 RMK A01 T03600061  RH  016%=      5-min Rain = 0
KSB1 210052Z 25008KT 36/06 A2998 RMK A01 T03590062  RH  016%=      5-min Rain = 0
KSB1 210053Z 25007KT 36/06 A2998 RMK A01 T03590061  RH  016%=      5-min Rain = 0
KSB1 210054Z 24004KT 36/06 A2998 RMK A01 T03590059  RH  016%=      5-min Rain = 0
KSB1 210055Z 25005KT 36/06 A2998 RMK A01 T03580059  RH  016%=      5-min Rain = 0
KSB1 210056Z 25006KT 36/06 A2998 RMK A01 T03590061  RH  016%=      5-min Rain = 0
KSB1 210057Z 24006KT 36/06 A2998 RMK A01 T03610061  RH  016%=      5-min Rain = 0
KSB1 210058Z 24005KT 36/06 A2998 RMK A01 T03590060  RH  016%=      5-min Rain = 0
KSB1 210059Z 25005KT 36/06 A2998 RMK A01 T03580061  RH  016%=      5-min Rain = 0
KSB1 210100Z 21005KT 36/06 A2998 RMK A01 T03590058  RH  016%=      5-min Rain = 0
KSB1 210101Z 21006KT 36/06 A2998 RMK A01 T03580056  RH  015%=      5-min Rain = 0
KSB1 210102Z 20007KT 36/06 A2998 RMK A01 T03570055  RH  015%=      5-min Rain = 0
KSB1 210103Z 21006KT 36/06 A2998 RMK A01 T03570055  RH  015%=      5-min Rain = 0
KSB1 210104Z 21004KT 36/05 A2998 RMK A01 T03560054  RH  015%=      5-min Rain = 0
KSB1 210105Z 20005KT 36/05 A2998 RMK A01 T03550054  RH  016%=      5-min Rain = 0
KSB1 210106Z 20009KT 36/06 A2998 RMK A01 T03560055  RH  016%=      5-min Rain = 0
KSB1 210107Z 18007KT 36/06 A2998 RMK A01 T03570056  RH  016%=      5-min Rain = 0
KSB1 210108Z 16006KT 36/06 A2998 RMK A01 T03580055  RH  015%=      5-min Rain = 0
KSB1 210109Z 19007KT 36/06 A2998 RMK A01 T03580056  RH  015%=      5-min Rain = 0
KSB1 210110Z 20006KT 36/06 A2998 RMK A01 T03570056  RH  015%=      5-min Rain = 0
KSB1 210111Z 21006KT 36/06 A2998 RMK A01 T03560055  RH  016%=      5-min Rain = 0
KSB1 210112Z 20006KT 36/06 A2998 RMK A01 T03550056  RH  016%=      5-min Rain = 0
KSB1 210113Z 21006KT 36/06 A2998 RMK A01 T03550055  RH  016%=      5-min Rain = 0
KSB1 210114Z 21005KT 36/06 A2998 RMK A01 T03560055  RH  016%=      5-min Rain = 0
KSB1 210115Z 21004KT 36/06 A2998 RMK A01 T03550056  RH  016%=      5-min Rain = 0
KSB1 210116Z 21005KT 36/06 A2998 RMK A01 T03550056  RH  016%=      5-min Rain = 0
KSB1 210117Z 22004KT 36/06 A2998 RMK A01 T03550056  RH  016%=      5-min Rain = 0
KSB1 210118Z 21005KT 36/06 A2998 RMK A01 T03560057  RH  016%=      5-min Rain = 0
KSB1 210119Z 20006KT 36/06 A2998 RMK A01 T03570057  RH  016%=      5-min Rain = 0
KSB1 210120Z 19006KT 36/05 A2999 RMK A01 T03560054  RH  015%=      5-min Rain = 0
KSB1 210121Z 19005KT 36/05 A2999 RMK A01 T03550052  RH  015%=      5-min Rain = 0
KSB1 210122Z 20004KT 35/05 A2999 RMK A01 T03540053  RH  015%=      5-min Rain = 0
KSB1 210123Z 19005KT 35/05 A2999 RMK A01 T03530053  RH  016%=      5-min Rain = 0
KSB1 210124Z 19003KT 35/05 A2999 RMK A01 T03540052  RH  015%=      5-min Rain = 0
KSB1 210125Z 20003KT 35/05 A2999 RMK A01 T03530052  RH  015%=      5-min Rain = 0
KSB1 210126Z 22003KT 35/05 A2999 RMK A01 T03530052  RH  015%=      5-min Rain = 0
KSB1 210127Z 20004KT 35/05 A2999 RMK A01 T03530052  RH  015%=      5-min Rain = 0
KSB1 210128Z 18006KT 35/05 A2999 RMK A01 T03530054  RH  016%=      5-min Rain = 0
KSB1 210129Z 19007KT 35/06 A2999 RMK A01 T03530056  RH  016%=      5-min Rain = 0
KSB1 210130Z 19009KT 35/06 A2999 RMK A01 T03530056  RH  016%=      5-min Rain = 0
KSB1 210131Z 19010KT 35/05 A2999 RMK A01 T03520054  RH  016%=      5-min Rain = 0
KSB1 210132Z 20009KT 35/05 A2999 RMK A01 T03510054  RH  016%=      5-min Rain = 0
KSB1 210133Z 20009KT 35/06 A2999 RMK A01 T03510055  RH  016%=      5-min Rain = 0
KSB1 210134Z 19009KT 35/06 A2999 RMK A01 T03500057  RH  016%=      5-min Rain = 0
KSB1 210135Z 19008KT 35/06 A2999 RMK A01 T03500058  RH  016%=      5-min Rain = 0
KSB1 210136Z 19006KT 35/06 A2999 RMK A01 T03500059  RH  016%=      5-min Rain = 0
KSB1 210137Z 20005KT 35/06 A2999 RMK A01 T03500060  RH  017%=      5-min Rain = 0
KSB1 210138Z 21005KT 35/06 A2999 RMK A01 T03500059  RH  017%=      5-min Rain = 0
KSB1 210139Z 20006KT 35/06 A2999 RMK A01 T03490059  RH  017%=      5-min Rain = 0
KSB1 210140Z 21005KT 35/06 A2999 RMK A01 T03500059  RH  017%=      5-min Rain = 0
KSB1 210141Z 21004KT 35/06 A2999 RMK A01 T03490058  RH  017%=      5-min Rain = 0
KSB1 210142Z 18004KT 35/06 A2999 RMK A01 T03490058  RH  017%=      5-min Rain = 0
KSB1 210143Z 16004KT 35/06 A2999 RMK A01 T03490057  RH  016%=      5-min Rain = 0
KSB1 210144Z 14005KT 35/06 A2999 RMK A01 T03490058  RH  017%=      5-min Rain = 0
KSB1 210145Z 13004KT 35/06 A2999 RMK A01 T03500060  RH  017%=      5-min Rain = 0
KSB1 210146Z 13005KT 35/06 A2999 RMK A01 T03490059  RH  017%=      5-min Rain = 0
KSB1 210147Z 13007KT 35/07 A2999 RMK A01 T03500066  RH  017%=      5-min Rain = 0
KSB1 210148Z 13011KT 35/08 A2999 RMK A01 T03480078  RH  019%=      5-min Rain = 0
KSB1 210149Z 15009KT 35/08 A2999 RMK A01 T03450083  RH  020%=      5-min Rain = 0
KSB1 210150Z 14009KT 34/08 A2999 RMK A01 T03440084  RH  020%=      5-min Rain = 0
KSB1 210151Z 13011KT 34/09 A2999 RMK A01 T03420087  RH  021%=      5-min Rain = 0
KSB1 210152Z 14011KT 34/09 A2999 RMK A01 T03400089  RH  021%=      5-min Rain = 0
KSB1 210153Z 14009KT 34/09 A2999 RMK A01 T03390089  RH  021%=      5-min Rain = 0
KSB1 210154Z 14009KT 34/09 A2999 RMK A01 T03390089  RH  022%=      5-min Rain = 0
KSB1 210155Z 13007KT 34/09 A2999 RMK A01 T03380089  RH  022%=      5-min Rain = 0
KSB1 210156Z 12007G12KT 34/09 A2999 RMK A01 T03380089  RH  022%=      5-min Rain = 0
KSB1 210157Z 13012G17KT 34/09 A2999 RMK A01 T03370088  RH  022%=      5-min Rain = 0
KSB1 210158Z 13014KT 34/09 A2999 RMK A01 T03350086  RH  022%=      5-min Rain = 0
KSB1 210159Z 12012KT 33/09 A2999 RMK A01 T03330085  RH  022%=      5-min Rain = 0
KSB1 210200Z 13014KT 33/09 A2999 RMK A01 T03320085  RH  022%=      5-min Rain = 0
KSB1 210201Z 13015KT 33/08 A2999 RMK A01 T03300081  RH  021%=      5-min Rain = 0
KSB1 210202Z 13014KT 33/08 A2999 RMK A01 T03290078  RH  021%=      5-min Rain = 0
KSB1 210203Z 13014KT 33/08 A2999 RMK A01 T03280076  RH  021%=      5-min Rain = 0
KSB1 210204Z 13011KT 33/08 A2999 RMK A01 T03270076  RH  021%=      5-min Rain = 0
KSB1 210205Z 13014KT 33/08 A2999 RMK A01 T03270076  RH  021%=      5-min Rain = 0
KSB1 210206Z 13011KT 33/08 A2999 RMK A01 T03260076  RH  021%=      5-min Rain = 0
KSB1 210207Z 13012KT 33/08 A2999 RMK A01 T03260076  RH  021%=      5-min Rain = 0
KSB1 210208Z 13011KT 33/08 A2999 RMK A01 T03260077  RH  021%=      5-min Rain = 0
KSB1 210209Z 13010KT 33/08 A2999 RMK A01 T03250077  RH  021%=      5-min Rain = 0
KSB1 210210Z 13011KT 33/08 A2999 RMK A01 T03250078  RH  022%=      5-min Rain = 0
KSB1 210211Z 14010KT 32/08 A2999 RMK A01 T03240078  RH  022%=      5-min Rain = 0
KSB1 210212Z 13009KT 32/08 A2999 RMK A01 T03240080  RH  022%=      5-min Rain = 0
KSB1 210213Z 14008KT 32/08 A2999 RMK A01 T03230080  RH  022%=      5-min Rain = 0
KSB1 210214Z 14008KT 32/08 A2999 RMK A01 T03220080  RH  022%=      5-min Rain = 0
KSB1 210215Z 14009KT 32/08 A2999 RMK A01 T03220080  RH  022%=      5-min Rain = 0
KSB1 210216Z 14010KT 32/08 A2999 RMK A01 T03210081  RH  022%=      5-min Rain = 0
KSB1 210217Z 14009KT 32/08 A2999 RMK A01 T03210081  RH  023%=      5-min Rain = 0
KSB1 210218Z 15008KT 32/08 A2999 RMK A01 T03200081  RH  023%=      5-min Rain = 0
KSB1 210219Z 14008KT 32/08 A2999 RMK A01 T03200081  RH  023%=      5-min Rain = 0
KSB1 210220Z 15007KT 32/08 A2999 RMK A01 T03190081  RH  023%=      5-min Rain = 0
KSB1 210221Z 15007KT 32/08 A2999 RMK A01 T03190081  RH  023%=      5-min Rain = 0
KSB1 210222Z 15006KT 32/08 A2999 RMK A01 T03180081  RH  023%=      5-min Rain = 0
KSB1 210223Z 15006KT 32/08 A2999 RMK A01 T03180082  RH  023%=      5-min Rain = 0
KSB1 210224Z 15005KT 32/08 A2999 RMK A01 T03170082  RH  023%=      5-min Rain = 0
KSB1 210225Z 15005KT 32/08 A2999 RMK A01 T03170081  RH  023%=      5-min Rain = 0
KSB1 210226Z 15005KT 32/08 A2999 RMK A01 T03170081  RH  023%=      5-min Rain = 0
KSB1 210227Z 16004KT 32/08 A2999 RMK A01 T03170081  RH  023%=      5-min Rain = 0
KSB1 210228Z 16004KT 32/08 A2999 RMK A01 T03160082  RH  023%=      5-min Rain = 0
KSB1 210229Z 16004KT 32/08 A2999 RMK A01 T03160081  RH  023%=      5-min Rain = 0
KSB1 210230Z 16004KT 32/08 A2999 RMK A01 T03150081  RH  023%=      5-min Rain = 0
KSB1 210231Z 15003KT 32/08 A2999 RMK A01 T03150081  RH  023%=      5-min Rain = 0
KSB1 210232Z 15003KT 31/08 A2999 RMK A01 T03140081  RH  023%=      5-min Rain = 0
KSB1 210233Z 15003KT 31/08 A2999 RMK A01 T03140082  RH  024%=      5-min Rain = 0
KSB1 210234Z 16003KT 31/08 A2999 RMK A01 T03130081  RH  024%=      5-min Rain = 0
KSB1 210235Z 16003KT 31/08 A2999 RMK A01 T03130081  RH  024%=      5-min Rain = 0
KSB1 210236Z 17002KT 31/08 A2999 RMK A01 T03130081  RH  024%=      5-min Rain = 0
KSB1 210237Z 17002KT 31/08 A2999 RMK A01 T03120081  RH  024%=      5-min Rain = 0
KSB1 210238Z 15002KT 31/08 A2999 RMK A01 T03120081  RH  024%=      5-min Rain = 0
KSB1 210239Z 15001KT 31/08 A2999 RMK A01 T03120082  RH  024%=      5-min Rain = 0
KSB1 210240Z 15001KT 31/08 A2999 RMK A01 T03120081  RH  024%=      5-min Rain = 0
KSB1 210241Z 14001KT 31/08 A2999 RMK A01 T03120081  RH  024%=      5-min Rain = 0
KSB1 210242Z 14002KT 31/08 A2999 RMK A01 T03120081  RH  024%=      5-min Rain = 0
KSB1 210243Z 13002KT 31/08 A2999 RMK A01 T03120081  RH  024%=      5-min Rain = 0
KSB1 210244Z 14002KT 31/08 A30 RMK A01 T03120081  RH  024%=      5-min Rain = 0
KSB1 210245Z 14002KT 31/08 A30 RMK A01 T03120081  RH  024%=      5-min Rain = 0
KSB1 210246Z 14002KT 31/08 A30 RMK A01 T03130082  RH  024%=      5-min Rain = 0
KSB1 210247Z 14002KT 31/08 A30 RMK A01 T03130082  RH  024%=      5-min Rain = 0
KSB1 210248Z 14001KT 31/08 A30 RMK A01 T03130081  RH  024%=      5-min Rain = 0
KSB1 210249Z 14001KT 31/08 A30 RMK A01 T03130082  RH  024%=      5-min Rain = 0
KSB1 210250Z 15001KT 31/08 A30 RMK A01 T03130082  RH  024%=      5-min Rain = 0
KSB1 210251Z 17000KT 31/08 A30 RMK A01 T03130082  RH  024%=      5-min Rain = 0
KSB1 210252Z 17000KT 31/08 A30 RMK A01 T03130081  RH  024%=      5-min Rain = 0
KSB1 210253Z 19001KT 31/08 A30 RMK A01 T03140082  RH  024%=      5-min Rain = 0
KSB1 210254Z 18001KT 31/08 A30 RMK A01 T03140082  RH  024%=      5-min Rain = 0
KSB1 210255Z 19002KT 31/08 A30 RMK A01 T03140082  RH  024%=      5-min Rain = 0
KSB1 210256Z 19002KT 32/08 A30 RMK A01 T03150081  RH  023%=      5-min Rain = 0
KSB1 210257Z 20002KT 32/08 A30 RMK A01 T03150081  RH  023%=      5-min Rain = 0
KSB1 210258Z 20003KT 32/08 A30 RMK A01 T03150082  RH  023%=      5-min Rain = 0
KSB1 210259Z 20003KT 32/08 A30 RMK A01 T03150082  RH  023%=      5-min Rain = 0
KSB1 210300Z 20003KT 32/08 A30 RMK A01 T03150082  RH  023%=      5-min Rain = 0
KSB1 210301Z 21003KT 32/08 A30 RMK A01 T03150081  RH  023%=      5-min Rain = 0
KSB1 210302Z 20003KT 32/08 A30 RMK A01 T03150081  RH  023%=      5-min Rain = 0
KSB1 210303Z 20004KT 32/08 A30 RMK A01 T03150081  RH  023%=      5-min Rain = 0
KSB1 210304Z 20005KT 32/08 A30 RMK A01 T03150080  RH  023%=      5-min Rain = 0
KSB1 210305Z 20005KT 32/08 A30 RMK A01 T03160081  RH  023%=      5-min Rain = 0
KSB1 210306Z 20005KT 32/08 A30 RMK A01 T03170081  RH  023%=      5-min Rain = 0
KSB1 210307Z 21005KT 32/08 A30 RMK A01 T03170080  RH  023%=      5-min Rain = 0
KSB1 210308Z 21004KT 32/08 A3001 RMK A01 T03150079  RH  023%=      5-min Rain = 0
KSB1 210309Z 20005KT 31/08 A3001 RMK A01 T03140079  RH  023%=      5-min Rain = 0
KSB1 210310Z 20006KT 31/08 A3001 RMK A01 T03130079  RH  023%=      5-min Rain = 0
KSB1 210311Z 21005KT 31/08 A3001 RMK A01 T03140080  RH  023%=      5-min Rain = 0
KSB1 210312Z 21004KT 32/08 A3001 RMK A01 T03150080  RH  023%=      5-min Rain = 0
KSB1 210313Z 22004KT 32/08 A3001 RMK A01 T03150080  RH  023%=      5-min Rain = 0
KSB1 210314Z 21005KT 31/08 A3001 RMK A01 T03140080  RH  023%=      5-min Rain = 0
KSB1 210315Z 21005KT 31/08 A3001 RMK A01 T03120079  RH  023%=      5-min Rain = 0
KSB1 210316Z 20004KT 31/08 A3001 RMK A01 T03110079  RH  024%=      5-min Rain = 0
KSB1 210317Z 20005KT 31/08 A3001 RMK A01 T03090079  RH  024%=      5-min Rain = 0
KSB1 210318Z 20005KT 31/08 A3001 RMK A01 T03080079  RH  024%=      5-min Rain = 0
KSB1 210319Z 20005KT 31/08 A3001 RMK A01 T03060079  RH  024%=      5-min Rain = 0
KSB1 210320Z 19005KT 31/08 A3001 RMK A01 T03060080  RH  024%=      5-min Rain = 0
KSB1 210321Z 20005KT 31/08 A3001 RMK A01 T03060081  RH  025%=      5-min Rain = 0
KSB1 210322Z 19006KT 31/08 A3001 RMK A01 T03060081  RH  025%=      5-min Rain = 0
KSB1 210323Z 19006KT 31/08 A3001 RMK A01 T03060082  RH  025%=      5-min Rain = 0
KSB1 210324Z 18006KT 31/08 A3001 RMK A01 T03060082  RH  025%=      5-min Rain = 0
KSB1 210325Z 18007KT 31/08 A3001 RMK A01 T03060083  RH  025%=      5-min Rain = 0
KSB1 210326Z 18007KT 31/09 A3001 RMK A01 T03070085  RH  025%=      5-min Rain = 0
KSB1 210327Z 18008KT 31/09 A3001 RMK A01 T03100086  RH  025%=      5-min Rain = 0
KSB1 210328Z 18008KT 31/09 A3001 RMK A01 T03130087  RH  025%=      5-min Rain = 0
KSB1 210329Z 18008KT 31/09 A3001 RMK A01 T03140087  RH  024%=      5-min Rain = 0
KSB1 210330Z 18009KT 31/09 A3001 RMK A01 T03140087  RH  024%=      5-min Rain = 0
KSB1 210331Z 17008KT 32/09 A3002 RMK A01 T03150087  RH  024%=      5-min Rain = 0
KSB1 210332Z 17008KT 32/09 A3002 RMK A01 T03160087  RH  024%=      5-min Rain = 0
KSB1 210333Z 17009KT 32/09 A3002 RMK A01 T03160087  RH  024%=      5-min Rain = 0
KSB1 210334Z 18008KT 32/09 A3002 RMK A01 T03160087  RH  024%=      5-min Rain = 0
KSB1 210335Z 18008KT 32/09 A3002 RMK A01 T03160087  RH  024%=      5-min Rain = 0
KSB1 210336Z 18009KT 32/09 A3002 RMK A01 T03160087  RH  024%=      5-min Rain = 0
KSB1 210337Z 18007KT 32/09 A3002 RMK A01 T03150087  RH  024%=      5-min Rain = 0
KSB1 210338Z 17007KT 32/09 A3002 RMK A01 T03150087  RH  024%=      5-min Rain = 0
KSB1 210339Z 17009KT 31/09 A3002 RMK A01 T03140087  RH  024%=      5-min Rain = 0
KSB1 210340Z 17008KT 31/09 A3002 RMK A01 T03140087  RH  024%=      5-min Rain = 0
KSB1 210341Z 17008KT 31/09 A3002 RMK A01 T03140087  RH  024%=      5-min Rain = 0
KSB1 210342Z 17007KT 31/09 A3002 RMK A01 T03140087  RH  024%=      5-min Rain = 0
KSB1 210343Z 17007KT 31/09 A3002 RMK A01 T03130087  RH  025%=      5-min Rain = 0
KSB1 210344Z 17007KT 31/09 A3002 RMK A01 T03120087  RH  025%=      5-min Rain = 0
KSB1 210345Z 17006KT 31/09 A3002 RMK A01 T03110087  RH  025%=      5-min Rain = 0
KSB1 210346Z 17006KT 31/09 A3002 RMK A01 T03110087  RH  025%=      5-min Rain = 0
KSB1 210347Z 17006KT 31/09 A3002 RMK A01 T03100087  RH  025%=      5-min Rain = 0
KSB1 210348Z 17006KT 31/09 A3002 RMK A01 T03100088  RH  025%=      5-min Rain = 0
KSB1 210349Z 16005KT 31/09 A3002 RMK A01 T03090088  RH  025%=      5-min Rain = 0
KSB1 210350Z 16004KT 31/09 A3002 RMK A01 T03090088  RH  025%=      5-min Rain = 0
KSB1 210351Z 16005KT 31/09 A3002 RMK A01 T03080088  RH  025%=      5-min Rain = 0
KSB1 210352Z 16004KT 31/09 A3002 RMK A01 T03070087  RH  025%=      5-min Rain = 0
KSB1 210353Z 15005KT 31/09 A3002 RMK A01 T03070088  RH  026%=      5-min Rain = 0
KSB1 210354Z 16005KT 31/09 A3002 RMK A01 T03070088  RH  026%=      5-min Rain = 0
KSB1 210355Z 17005KT 31/09 A3002 RMK A01 T03060088  RH  026%=      5-min Rain = 0
KSB1 210356Z 17005KT 31/09 A3002 RMK A01 T03060088  RH  026%=      5-min Rain = 0
KSB1 210357Z 17006KT 31/09 A3002 RMK A01 T03060088  RH  026%=      5-min Rain = 0
KSB1 210358Z 16005KT 31/09 A3002 RMK A01 T03060089  RH  026%=      5-min Rain = 0
KSB1 210359Z 16005KT 31/09 A3002 RMK A01 T03060089  RH  026%=      5-min Rain = 0
KSB1 210400Z 16004KT 31/09 A3002 RMK A01 T03060089  RH  026%=      5-min Rain = 0
KSB1 210401Z 15004KT 31/09 A3002 RMK A01 T03070089  RH  026%=      5-min Rain = 0
KSB1 210402Z 14003KT 31/09 A3002 RMK A01 T03060089  RH  026%=      5-min Rain = 0
KSB1 210403Z 13004KT 31/09 A3002 RMK A01 T03060089  RH  026%=      5-min Rain = 0
KSB1 210404Z 12004KT 31/09 A3002 RMK A01 T03050088  RH  026%=      5-min Rain = 0
KSB1 210405Z 12004KT 30/09 A3002 RMK A01 T03040088  RH  026%=      5-min Rain = 0
KSB1 210406Z 09004KT 30/09 A3002 RMK A01 T03030088  RH  026%=      5-min Rain = 0
KSB1 210407Z 08004KT 30/09 A3002 RMK A01 T03020087  RH  026%=      5-min Rain = 0
KSB1 210408Z 09004KT 30/09 A3002 RMK A01 T03000086  RH  026%=      5-min Rain = 0
KSB1 210409Z 09005KT 30/09 A3003 RMK A01 T02980085  RH  026%=      5-min Rain = 0
KSB1 210410Z 09005KT 30/08 A3003 RMK A01 T02960084  RH  027%=      5-min Rain = 0
KSB1 210411Z 08005KT 29/08 A3003 RMK A01 T02940084  RH  027%=      5-min Rain = 0
KSB1 210412Z 09006KT 29/08 A3003 RMK A01 T02930084  RH  027%=      5-min Rain = 0
KSB1 210413Z 09006KT 29/08 A3003 RMK A01 T02920083  RH  027%=      5-min Rain = 0
KSB1 210414Z 09007KT 29/08 A3003 RMK A01 T02910083  RH  027%=      5-min Rain = 0
KSB1 210415Z 10006KT 29/08 A3003 RMK A01 T02900082  RH  027%=      5-min Rain = 0
KSB1 210416Z 09007KT 29/08 A3003 RMK A01 T02910082  RH  027%=      5-min Rain = 0
KSB1 210417Z 10006KT 29/08 A3003 RMK A01 T02900082  RH  027%=      5-min Rain = 0
KSB1 210418Z 10006KT 29/08 A3003 RMK A01 T02890084  RH  028%=      5-min Rain = 0
KSB1 210419Z 11006KT 29/08 A3003 RMK A01 T02890084  RH  028%=      5-min Rain = 0
KSB1 210420Z 13005KT 29/09 A3003 RMK A01 T02900086  RH  028%=      5-min Rain = 0
KSB1 210421Z 11005KT 29/09 A3003 RMK A01 T02930088  RH  028%=      5-min Rain = 0
KSB1 210422Z 12005KT 29/09 A3003 RMK A01 T02940087  RH  028%=      5-min Rain = 0
KSB1 210423Z 11005KT 29/09 A3003 RMK A01 T02940087  RH  027%=      5-min Rain = 0
KSB1 210424Z 11004KT 29/09 A3003 RMK A01 T02930087  RH  028%=      5-min Rain = 0
KSB1 210425Z 11004KT 29/09 A3003 RMK A01 T02920087  RH  028%=      5-min Rain = 0
KSB1 210426Z 13005KT 29/09 A3003 RMK A01 T02920088  RH  028%=      5-min Rain = 0
KSB1 210427Z 11004KT 29/09 A3003 RMK A01 T02920088  RH  028%=      5-min Rain = 0
KSB1 210428Z 10003KT 29/09 A3003 RMK A01 T02920088  RH  028%=      5-min Rain = 0
KSB1 210429Z 11004KT 29/09 A3003 RMK A01 T02920089  RH  028%=      5-min Rain = 0
KSB1 210430Z 10003KT 29/09 A3003 RMK A01 T02910088  RH  028%=      5-min Rain = 0
KSB1 210431Z 11003KT 29/09 A3003 RMK A01 T02910088  RH  028%=      5-min Rain = 0
KSB1 210432Z 09003KT 29/09 A3003 RMK A01 T02900088  RH  028%=      5-min Rain = 0
KSB1 210433Z 09003KT 29/09 A3003 RMK A01 T02900088  RH  028%=      5-min Rain = 0
KSB1 210434Z 10003KT 29/09 A3003 RMK A01 T02900088  RH  028%=      5-min Rain = 0
KSB1 210435Z 09003KT 29/09 A3003 RMK A01 T02900088  RH  028%=      5-min Rain = 0
KSB1 210436Z 09003KT 29/09 A3003 RMK A01 T02900088  RH  028%=      5-min Rain = 0
KSB1 210437Z 09002KT 29/09 A3003 RMK A01 T02890088  RH  028%=      5-min Rain = 0
KSB1 210438Z 09003KT 29/09 A3003 RMK A01 T02890089  RH  029%=      5-min Rain = 0
KSB1 210439Z 09004KT 29/09 A3003 RMK A01 T02890089  RH  029%=      5-min Rain = 0
KSB1 210440Z 09003KT 29/09 A3003 RMK A01 T02880090  RH  029%=      5-min Rain = 0
KSB1 210441Z 10004KT 29/09 A3003 RMK A01 T02880090  RH  029%=      5-min Rain = 0
KSB1 210442Z 08003KT 29/09 A3003 RMK A01 T02880091  RH  029%=      5-min Rain = 0
KSB1 210443Z 08003KT 29/09 A3003 RMK A01 T02880090  RH  029%=      5-min Rain = 0
KSB1 210444Z 08003KT 29/09 A3003 RMK A01 T02880090  RH  029%=      5-min Rain = 0
KSB1 210445Z 08004KT 29/09 A3003 RMK A01 T02870089  RH  029%=      5-min Rain = 0
KSB1 210446Z 08004KT 29/09 A3003 RMK A01 T02870089  RH  029%=      5-min Rain = 0
KSB1 210447Z 09003KT 29/09 A3003 RMK A01 T02860089  RH  029%=      5-min Rain = 0
KSB1 210448Z 09002KT 29/09 A3003 RMK A01 T02870089  RH  029%=      5-min Rain = 0
KSB1 210449Z 09002KT 29/09 A3003 RMK A01 T02860089  RH  029%=      5-min Rain = 0
KSB1 210450Z 10003KT 29/09 A3003 RMK A01 T02860089  RH  029%=      5-min Rain = 0
KSB1 210451Z 09002KT 29/09 A3003 RMK A01 T02870089  RH  029%=      5-min Rain = 0
KSB1 210452Z 10002KT 29/09 A3003 RMK A01 T02860089  RH  029%=      5-min Rain = 0
KSB1 210453Z 10001KT 29/09 A3003 RMK A01 T02860088  RH  029%=      5-min Rain = 0
KSB1 210454Z 09000KT 29/09 A3003 RMK A01 T02870088  RH  029%=      5-min Rain = 0
KSB1 210455Z 21001KT 29/09 A3003 RMK A01 T02870089  RH  029%=      5-min Rain = 0
KSB1 210456Z 23001KT 29/09 A3003 RMK A01 T02870089  RH  029%=      5-min Rain = 0
KSB1 210457Z 23001KT 29/09 A3004 RMK A01 T02870089  RH  029%=      5-min Rain = 0
KSB1 210458Z 21002KT 29/09 A3004 RMK A01 T02860089  RH  029%=      5-min Rain = 0
KSB1 210459Z 18003KT 29/09 A3004 RMK A01 T02870090  RH  029%=      5-min Rain = 0

Page generated in 0.1228 seconds.